<?xml version="1.0" encoding="UTF-8" standalone="no" ?>
<gpx xmlns="http://www.topografix.com/GPX/1/1" xmlns:xsi="http://www.w3.org/2001/XMLSchema-instance" xsi:schemaLocation="http://www.topografix.com/GPX/1/1 http://www.topografix.com/GPX/1/1/gpx.xsd" version="1.1" creator="VisuGPX - https://www.visugpx.com">
  <metadata>
    <name>pluguffan le tour du bourg</name>
  </metadata>
  <trk>
    <name><![CDATA[2022-06-04-01]]></name>
    <extensions>
      <line xmlns="http://www.topografix.com/GPX/gpx_style/0/2">
        <color>0000FF</color>
        <width>4</width>
      </line>
    </extensions>
    <trkseg>
      <trkpt lat="47.97948" lon="-4.18118">
        <ele>74.8</ele>
        <time>2022-06-04T06:12:49Z</time>
      </trkpt>
      <trkpt lat="47.97941" lon="-4.18128">
        <ele>75.2</ele>
        <time>2022-06-04T06:14:00Z</time>
      </trkpt>
      <trkpt lat="47.97933" lon="-4.18137">
        <ele>75.6</ele>
        <time>2022-06-04T06:14:10Z</time>
      </trkpt>
      <trkpt lat="47.97929" lon="-4.18149">
        <ele>75.5</ele>
        <time>2022-06-04T06:14:18Z</time>
      </trkpt>
      <trkpt lat="47.97926" lon="-4.18162">
        <ele>75.3</ele>
        <time>2022-06-04T06:14:26Z</time>
      </trkpt>
      <trkpt lat="47.97923" lon="-4.18175">
        <ele>75.3</ele>
        <time>2022-06-04T06:14:33Z</time>
      </trkpt>
      <trkpt lat="47.9792" lon="-4.18189">
        <ele>74.8</ele>
        <time>2022-06-04T06:14:42Z</time>
      </trkpt>
      <trkpt lat="47.97915" lon="-4.18202">
        <ele>74.7</ele>
        <time>2022-06-04T06:14:50Z</time>
      </trkpt>
      <trkpt lat="47.97907" lon="-4.18208">
        <ele>74.8</ele>
        <time>2022-06-04T06:14:58Z</time>
      </trkpt>
      <trkpt lat="47.97898" lon="-4.18213">
        <ele>74.3</ele>
        <time>2022-06-04T06:15:07Z</time>
      </trkpt>
      <trkpt lat="47.97889" lon="-4.18218">
        <ele>74.2</ele>
        <time>2022-06-04T06:15:15Z</time>
      </trkpt>
      <trkpt lat="47.9788" lon="-4.18221">
        <ele>74.1</ele>
        <time>2022-06-04T06:15:22Z</time>
      </trkpt>
      <trkpt lat="47.97871" lon="-4.18226">
        <ele>73.9</ele>
        <time>2022-06-04T06:15:30Z</time>
      </trkpt>
      <trkpt lat="47.97862" lon="-4.18231">
        <ele>74.3</ele>
        <time>2022-06-04T06:15:37Z</time>
      </trkpt>
      <trkpt lat="47.97853" lon="-4.18232">
        <ele>74.1</ele>
        <time>2022-06-04T06:15:45Z</time>
      </trkpt>
      <trkpt lat="47.97843" lon="-4.18236">
        <ele>74.1</ele>
        <time>2022-06-04T06:15:53Z</time>
      </trkpt>
      <trkpt lat="47.97833" lon="-4.18237">
        <ele>74</ele>
        <time>2022-06-04T06:16:02Z</time>
      </trkpt>
      <trkpt lat="47.97826" lon="-4.18244">
        <ele>74.3</ele>
        <time>2022-06-04T06:16:10Z</time>
      </trkpt>
      <trkpt lat="47.97817" lon="-4.1825">
        <ele>74.4</ele>
        <time>2022-06-04T06:16:17Z</time>
      </trkpt>
      <trkpt lat="47.97809" lon="-4.18257">
        <ele>74.5</ele>
        <time>2022-06-04T06:16:24Z</time>
      </trkpt>
      <trkpt lat="47.978" lon="-4.18263">
        <ele>74.4</ele>
        <time>2022-06-04T06:16:32Z</time>
      </trkpt>
      <trkpt lat="47.97792" lon="-4.18268">
        <ele>74.4</ele>
        <time>2022-06-04T06:16:40Z</time>
      </trkpt>
      <trkpt lat="47.97783" lon="-4.18276">
        <ele>74.2</ele>
        <time>2022-06-04T06:16:48Z</time>
      </trkpt>
      <trkpt lat="47.97779" lon="-4.1829">
        <ele>74.4</ele>
        <time>2022-06-04T06:16:56Z</time>
      </trkpt>
      <trkpt lat="47.97776" lon="-4.18304">
        <ele>74.2</ele>
        <time>2022-06-04T06:17:03Z</time>
      </trkpt>
      <trkpt lat="47.97772" lon="-4.18317">
        <ele>73.4</ele>
        <time>2022-06-04T06:17:12Z</time>
      </trkpt>
      <trkpt lat="47.97763" lon="-4.18318">
        <ele>73.1</ele>
        <time>2022-06-04T06:17:20Z</time>
      </trkpt>
      <trkpt lat="47.97753" lon="-4.18319">
        <ele>73</ele>
        <time>2022-06-04T06:17:27Z</time>
      </trkpt>
      <trkpt lat="47.97744" lon="-4.18322">
        <ele>72.7</ele>
        <time>2022-06-04T06:17:34Z</time>
      </trkpt>
      <trkpt lat="47.97735" lon="-4.18324">
        <ele>72</ele>
        <time>2022-06-04T06:17:43Z</time>
      </trkpt>
      <trkpt lat="47.97725" lon="-4.18327">
        <ele>71.6</ele>
        <time>2022-06-04T06:17:51Z</time>
      </trkpt>
      <trkpt lat="47.97716" lon="-4.18331">
        <ele>71.1</ele>
        <time>2022-06-04T06:17:58Z</time>
      </trkpt>
      <trkpt lat="47.97707" lon="-4.18334">
        <ele>70.6</ele>
        <time>2022-06-04T06:18:06Z</time>
      </trkpt>
      <trkpt lat="47.97697" lon="-4.18334">
        <ele>70.3</ele>
        <time>2022-06-04T06:18:13Z</time>
      </trkpt>
      <trkpt lat="47.9769" lon="-4.18323">
        <ele>70.5</ele>
        <time>2022-06-04T06:18:51Z</time>
      </trkpt>
      <trkpt lat="47.97692" lon="-4.18309">
        <ele>71.3</ele>
        <time>2022-06-04T06:19:01Z</time>
      </trkpt>
      <trkpt lat="47.97692" lon="-4.18294">
        <ele>72.4</ele>
        <time>2022-06-04T06:19:10Z</time>
      </trkpt>
      <trkpt lat="47.97691" lon="-4.1828">
        <ele>73.1</ele>
        <time>2022-06-04T06:19:17Z</time>
      </trkpt>
      <trkpt lat="47.97692" lon="-4.18267">
        <ele>73.6</ele>
        <time>2022-06-04T06:19:24Z</time>
      </trkpt>
      <trkpt lat="47.97693" lon="-4.18253">
        <ele>73.8</ele>
        <time>2022-06-04T06:19:31Z</time>
      </trkpt>
      <trkpt lat="47.97693" lon="-4.18238">
        <ele>73.8</ele>
        <time>2022-06-04T06:19:38Z</time>
      </trkpt>
      <trkpt lat="47.97693" lon="-4.18223">
        <ele>73.8</ele>
        <time>2022-06-04T06:19:46Z</time>
      </trkpt>
      <trkpt lat="47.97693" lon="-4.18209">
        <ele>74.3</ele>
        <time>2022-06-04T06:19:54Z</time>
      </trkpt>
      <trkpt lat="47.97693" lon="-4.18195">
        <ele>74.3</ele>
        <time>2022-06-04T06:20:01Z</time>
      </trkpt>
      <trkpt lat="47.97694" lon="-4.18181">
        <ele>74.4</ele>
        <time>2022-06-04T06:20:08Z</time>
      </trkpt>
      <trkpt lat="47.97694" lon="-4.18166">
        <ele>74.5</ele>
        <time>2022-06-04T06:20:15Z</time>
      </trkpt>
      <trkpt lat="47.97693" lon="-4.18152">
        <ele>74.8</ele>
        <time>2022-06-04T06:20:22Z</time>
      </trkpt>
      <trkpt lat="47.97695" lon="-4.18137">
        <ele>75.2</ele>
        <time>2022-06-04T06:20:30Z</time>
      </trkpt>
      <trkpt lat="47.97696" lon="-4.18122">
        <ele>75.3</ele>
        <time>2022-06-04T06:20:36Z</time>
      </trkpt>
      <trkpt lat="47.97696" lon="-4.18108">
        <ele>75.3</ele>
        <time>2022-06-04T06:20:42Z</time>
      </trkpt>
      <trkpt lat="47.97698" lon="-4.18092">
        <ele>75.3</ele>
        <time>2022-06-04T06:20:49Z</time>
      </trkpt>
      <trkpt lat="47.97701" lon="-4.18079">
        <ele>75.6</ele>
        <time>2022-06-04T06:20:57Z</time>
      </trkpt>
      <trkpt lat="47.97705" lon="-4.18065">
        <ele>75.9</ele>
        <time>2022-06-04T06:21:05Z</time>
      </trkpt>
      <trkpt lat="47.97706" lon="-4.1805">
        <ele>75.9</ele>
        <time>2022-06-04T06:21:12Z</time>
      </trkpt>
      <trkpt lat="47.97708" lon="-4.18036">
        <ele>76</ele>
        <time>2022-06-04T06:21:18Z</time>
      </trkpt>
      <trkpt lat="47.97709" lon="-4.18021">
        <ele>76</ele>
        <time>2022-06-04T06:21:25Z</time>
      </trkpt>
      <trkpt lat="47.97713" lon="-4.18008">
        <ele>75.8</ele>
        <time>2022-06-04T06:21:33Z</time>
      </trkpt>
      <trkpt lat="47.97715" lon="-4.17994">
        <ele>75.5</ele>
        <time>2022-06-04T06:21:40Z</time>
      </trkpt>
      <trkpt lat="47.97716" lon="-4.17979">
        <ele>75.3</ele>
        <time>2022-06-04T06:21:47Z</time>
      </trkpt>
      <trkpt lat="47.97717" lon="-4.17964">
        <ele>75.3</ele>
        <time>2022-06-04T06:21:54Z</time>
      </trkpt>
      <trkpt lat="47.97718" lon="-4.17949">
        <ele>75.1</ele>
        <time>2022-06-04T06:22:02Z</time>
      </trkpt>
      <trkpt lat="47.97718" lon="-4.17935">
        <ele>74.9</ele>
        <time>2022-06-04T06:22:09Z</time>
      </trkpt>
      <trkpt lat="47.97716" lon="-4.1792">
        <ele>74.8</ele>
        <time>2022-06-04T06:22:16Z</time>
      </trkpt>
      <trkpt lat="47.97715" lon="-4.17905">
        <ele>74.8</ele>
        <time>2022-06-04T06:22:24Z</time>
      </trkpt>
      <trkpt lat="47.97713" lon="-4.17891">
        <ele>74.6</ele>
        <time>2022-06-04T06:22:31Z</time>
      </trkpt>
      <trkpt lat="47.97711" lon="-4.17878">
        <ele>74.6</ele>
        <time>2022-06-04T06:22:38Z</time>
      </trkpt>
      <trkpt lat="47.9771" lon="-4.17863">
        <ele>74.5</ele>
        <time>2022-06-04T06:22:46Z</time>
      </trkpt>
      <trkpt lat="47.97708" lon="-4.17849">
        <ele>74.5</ele>
        <time>2022-06-04T06:22:53Z</time>
      </trkpt>
      <trkpt lat="47.97704" lon="-4.17835">
        <ele>74.6</ele>
        <time>2022-06-04T06:23:00Z</time>
      </trkpt>
      <trkpt lat="47.97698" lon="-4.17825">
        <ele>74.5</ele>
        <time>2022-06-04T06:23:08Z</time>
      </trkpt>
      <trkpt lat="47.97694" lon="-4.17811">
        <ele>74.1</ele>
        <time>2022-06-04T06:23:18Z</time>
      </trkpt>
      <trkpt lat="47.97693" lon="-4.17797">
        <ele>73.9</ele>
        <time>2022-06-04T06:23:26Z</time>
      </trkpt>
      <trkpt lat="47.97693" lon="-4.17783">
        <ele>74</ele>
        <time>2022-06-04T06:23:34Z</time>
      </trkpt>
      <trkpt lat="47.97697" lon="-4.17769">
        <ele>74</ele>
        <time>2022-06-04T06:23:42Z</time>
      </trkpt>
      <trkpt lat="47.97699" lon="-4.17754">
        <ele>73.9</ele>
        <time>2022-06-04T06:23:50Z</time>
      </trkpt>
      <trkpt lat="47.97699" lon="-4.1774">
        <ele>74.3</ele>
        <time>2022-06-04T06:23:57Z</time>
      </trkpt>
      <trkpt lat="47.97699" lon="-4.17725">
        <ele>74.2</ele>
        <time>2022-06-04T06:24:05Z</time>
      </trkpt>
      <trkpt lat="47.97698" lon="-4.17711">
        <ele>74.6</ele>
        <time>2022-06-04T06:24:12Z</time>
      </trkpt>
      <trkpt lat="47.977" lon="-4.17696">
        <ele>74.1</ele>
        <time>2022-06-04T06:24:19Z</time>
      </trkpt>
      <trkpt lat="47.97701" lon="-4.1768">
        <ele>74.1</ele>
        <time>2022-06-04T06:24:27Z</time>
      </trkpt>
      <trkpt lat="47.97701" lon="-4.17665">
        <ele>74</ele>
        <time>2022-06-04T06:24:35Z</time>
      </trkpt>
      <trkpt lat="47.97703" lon="-4.17651">
        <ele>73.9</ele>
        <time>2022-06-04T06:24:43Z</time>
      </trkpt>
      <trkpt lat="47.97713" lon="-4.17653">
        <ele>74.6</ele>
        <time>2022-06-04T06:24:55Z</time>
      </trkpt>
      <trkpt lat="47.97723" lon="-4.17655">
        <ele>75</ele>
        <time>2022-06-04T06:25:03Z</time>
      </trkpt>
      <trkpt lat="47.97732" lon="-4.17655">
        <ele>75</ele>
        <time>2022-06-04T06:25:11Z</time>
      </trkpt>
      <trkpt lat="47.97741" lon="-4.17655">
        <ele>75.2</ele>
        <time>2022-06-04T06:25:18Z</time>
      </trkpt>
      <trkpt lat="47.97751" lon="-4.17654">
        <ele>74.9</ele>
        <time>2022-06-04T06:25:26Z</time>
      </trkpt>
      <trkpt lat="47.97761" lon="-4.17656">
        <ele>75</ele>
        <time>2022-06-04T06:25:35Z</time>
      </trkpt>
      <trkpt lat="47.97771" lon="-4.17659">
        <ele>74.7</ele>
        <time>2022-06-04T06:25:43Z</time>
      </trkpt>
      <trkpt lat="47.9778" lon="-4.1766">
        <ele>74.7</ele>
        <time>2022-06-04T06:25:51Z</time>
      </trkpt>
      <trkpt lat="47.9779" lon="-4.17661">
        <ele>74.5</ele>
        <time>2022-06-04T06:25:58Z</time>
      </trkpt>
      <trkpt lat="47.978" lon="-4.17661">
        <ele>74.4</ele>
        <time>2022-06-04T06:26:05Z</time>
      </trkpt>
      <trkpt lat="47.9781" lon="-4.17661">
        <ele>74.5</ele>
        <time>2022-06-04T06:26:13Z</time>
      </trkpt>
      <trkpt lat="47.97819" lon="-4.1766">
        <ele>74.3</ele>
        <time>2022-06-04T06:26:21Z</time>
      </trkpt>
      <trkpt lat="47.97828" lon="-4.17655">
        <ele>74.2</ele>
        <time>2022-06-04T06:26:34Z</time>
      </trkpt>
      <trkpt lat="47.97828" lon="-4.17641">
        <ele>73.6</ele>
        <time>2022-06-04T06:26:44Z</time>
      </trkpt>
      <trkpt lat="47.97827" lon="-4.17627">
        <ele>73.4</ele>
        <time>2022-06-04T06:26:53Z</time>
      </trkpt>
      <trkpt lat="47.97831" lon="-4.17613">
        <ele>73.4</ele>
        <time>2022-06-04T06:26:59Z</time>
      </trkpt>
      <trkpt lat="47.97835" lon="-4.17601">
        <ele>73.6</ele>
        <time>2022-06-04T06:27:05Z</time>
      </trkpt>
      <trkpt lat="47.97837" lon="-4.17586">
        <ele>73.3</ele>
        <time>2022-06-04T06:27:12Z</time>
      </trkpt>
      <trkpt lat="47.97836" lon="-4.17573">
        <ele>73.6</ele>
        <time>2022-06-04T06:27:19Z</time>
      </trkpt>
      <trkpt lat="47.97836" lon="-4.17559">
        <ele>73.2</ele>
        <time>2022-06-04T06:27:27Z</time>
      </trkpt>
      <trkpt lat="47.97837" lon="-4.17545">
        <ele>73.1</ele>
        <time>2022-06-04T06:27:35Z</time>
      </trkpt>
      <trkpt lat="47.97837" lon="-4.1753">
        <ele>73</ele>
        <time>2022-06-04T06:27:43Z</time>
      </trkpt>
      <trkpt lat="47.97835" lon="-4.17516">
        <ele>72.9</ele>
        <time>2022-06-04T06:27:50Z</time>
      </trkpt>
      <trkpt lat="47.97835" lon="-4.17502">
        <ele>72.5</ele>
        <time>2022-06-04T06:27:57Z</time>
      </trkpt>
      <trkpt lat="47.9784" lon="-4.17491">
        <ele>72.1</ele>
        <time>2022-06-04T06:28:09Z</time>
      </trkpt>
      <trkpt lat="47.9785" lon="-4.17488">
        <ele>72.4</ele>
        <time>2022-06-04T06:28:18Z</time>
      </trkpt>
      <trkpt lat="47.97858" lon="-4.17482">
        <ele>72.3</ele>
        <time>2022-06-04T06:28:27Z</time>
      </trkpt>
      <trkpt lat="47.97868" lon="-4.17479">
        <ele>72.4</ele>
        <time>2022-06-04T06:28:35Z</time>
      </trkpt>
      <trkpt lat="47.97877" lon="-4.17476">
        <ele>72.6</ele>
        <time>2022-06-04T06:28:43Z</time>
      </trkpt>
      <trkpt lat="47.97887" lon="-4.17472">
        <ele>72.8</ele>
        <time>2022-06-04T06:28:51Z</time>
      </trkpt>
      <trkpt lat="47.97892" lon="-4.1746">
        <ele>73.3</ele>
        <time>2022-06-04T06:28:59Z</time>
      </trkpt>
      <trkpt lat="47.97893" lon="-4.17446">
        <ele>73.4</ele>
        <time>2022-06-04T06:29:07Z</time>
      </trkpt>
      <trkpt lat="47.97893" lon="-4.17432">
        <ele>73.3</ele>
        <time>2022-06-04T06:29:14Z</time>
      </trkpt>
      <trkpt lat="47.97892" lon="-4.17417">
        <ele>73.1</ele>
        <time>2022-06-04T06:29:21Z</time>
      </trkpt>
      <trkpt lat="47.97891" lon="-4.17403">
        <ele>72.8</ele>
        <time>2022-06-04T06:29:29Z</time>
      </trkpt>
      <trkpt lat="47.979" lon="-4.17395">
        <ele>72.7</ele>
        <time>2022-06-04T06:29:38Z</time>
      </trkpt>
      <trkpt lat="47.97909" lon="-4.17392">
        <ele>72.5</ele>
        <time>2022-06-04T06:29:45Z</time>
      </trkpt>
      <trkpt lat="47.97918" lon="-4.17389">
        <ele>71.9</ele>
        <time>2022-06-04T06:29:53Z</time>
      </trkpt>
      <trkpt lat="47.97927" lon="-4.17391">
        <ele>71</ele>
        <time>2022-06-04T06:30:03Z</time>
      </trkpt>
      <trkpt lat="47.97936" lon="-4.17399">
        <ele>70.7</ele>
        <time>2022-06-04T06:30:10Z</time>
      </trkpt>
      <trkpt lat="47.97946" lon="-4.174">
        <ele>70.3</ele>
        <time>2022-06-04T06:30:17Z</time>
      </trkpt>
      <trkpt lat="47.97955" lon="-4.17403">
        <ele>69.4</ele>
        <time>2022-06-04T06:30:26Z</time>
      </trkpt>
      <trkpt lat="47.97964" lon="-4.17408">
        <ele>68.8</ele>
        <time>2022-06-04T06:30:34Z</time>
      </trkpt>
      <trkpt lat="47.97972" lon="-4.17414">
        <ele>68.5</ele>
        <time>2022-06-04T06:30:41Z</time>
      </trkpt>
      <trkpt lat="47.97981" lon="-4.17414">
        <ele>67.5</ele>
        <time>2022-06-04T06:30:50Z</time>
      </trkpt>
      <trkpt lat="47.97991" lon="-4.17411">
        <ele>66.3</ele>
        <time>2022-06-04T06:31:00Z</time>
      </trkpt>
      <trkpt lat="47.98" lon="-4.17414">
        <ele>64.4</ele>
        <time>2022-06-04T06:31:13Z</time>
      </trkpt>
      <trkpt lat="47.9801" lon="-4.17417">
        <ele>62.9</ele>
        <time>2022-06-04T06:31:23Z</time>
      </trkpt>
      <trkpt lat="47.98017" lon="-4.17407">
        <ele>61.2</ele>
        <time>2022-06-04T06:31:32Z</time>
      </trkpt>
      <trkpt lat="47.98024" lon="-4.17398">
        <ele>59.9</ele>
        <time>2022-06-04T06:31:39Z</time>
      </trkpt>
      <trkpt lat="47.9803" lon="-4.17387">
        <ele>58.5</ele>
        <time>2022-06-04T06:31:46Z</time>
      </trkpt>
      <trkpt lat="47.98039" lon="-4.17385">
        <ele>57.3</ele>
        <time>2022-06-04T06:31:56Z</time>
      </trkpt>
      <trkpt lat="47.98046" lon="-4.17394">
        <ele>56</ele>
        <time>2022-06-04T06:32:07Z</time>
      </trkpt>
      <trkpt lat="47.98049" lon="-4.17408">
        <ele>54.7</ele>
        <time>2022-06-04T06:32:17Z</time>
      </trkpt>
      <trkpt lat="47.98046" lon="-4.17423">
        <ele>54.1</ele>
        <time>2022-06-04T06:32:25Z</time>
      </trkpt>
      <trkpt lat="47.9805" lon="-4.17435">
        <ele>53.6</ele>
        <time>2022-06-04T06:32:34Z</time>
      </trkpt>
      <trkpt lat="47.98056" lon="-4.17445">
        <ele>52.2</ele>
        <time>2022-06-04T06:32:47Z</time>
      </trkpt>
      <trkpt lat="47.98064" lon="-4.17453">
        <ele>51.4</ele>
        <time>2022-06-04T06:32:59Z</time>
      </trkpt>
      <trkpt lat="47.98073" lon="-4.17448">
        <ele>51.3</ele>
        <time>2022-06-04T06:33:16Z</time>
      </trkpt>
      <trkpt lat="47.98078" lon="-4.17435">
        <ele>50.5</ele>
        <time>2022-06-04T06:33:24Z</time>
      </trkpt>
      <trkpt lat="47.98081" lon="-4.17421">
        <ele>49.2</ele>
        <time>2022-06-04T06:33:33Z</time>
      </trkpt>
      <trkpt lat="47.98076" lon="-4.17409">
        <ele>48</ele>
        <time>2022-06-04T06:33:46Z</time>
      </trkpt>
      <trkpt lat="47.98081" lon="-4.17397">
        <ele>47.3</ele>
        <time>2022-06-04T06:33:54Z</time>
      </trkpt>
      <trkpt lat="47.98081" lon="-4.17383">
        <ele>46.3</ele>
        <time>2022-06-04T06:34:03Z</time>
      </trkpt>
      <trkpt lat="47.9808" lon="-4.17368">
        <ele>45.5</ele>
        <time>2022-06-04T06:34:12Z</time>
      </trkpt>
      <trkpt lat="47.98081" lon="-4.17354">
        <ele>44.7</ele>
        <time>2022-06-04T06:34:20Z</time>
      </trkpt>
      <trkpt lat="47.98079" lon="-4.1734">
        <ele>44.2</ele>
        <time>2022-06-04T06:34:28Z</time>
      </trkpt>
      <trkpt lat="47.98076" lon="-4.17326">
        <ele>43.5</ele>
        <time>2022-06-04T06:34:52Z</time>
      </trkpt>
      <trkpt lat="47.98078" lon="-4.17313">
        <ele>42.5</ele>
        <time>2022-06-04T06:35:04Z</time>
      </trkpt>
      <trkpt lat="47.98088" lon="-4.17311">
        <ele>41.1</ele>
        <time>2022-06-04T06:35:15Z</time>
      </trkpt>
      <trkpt lat="47.98097" lon="-4.1731">
        <ele>40.3</ele>
        <time>2022-06-04T06:35:23Z</time>
      </trkpt>
      <trkpt lat="47.98107" lon="-4.1731">
        <ele>39.6</ele>
        <time>2022-06-04T06:35:33Z</time>
      </trkpt>
      <trkpt lat="47.98116" lon="-4.17314">
        <ele>39.1</ele>
        <time>2022-06-04T06:35:41Z</time>
      </trkpt>
      <trkpt lat="47.98126" lon="-4.17312">
        <ele>38.9</ele>
        <time>2022-06-04T06:35:49Z</time>
      </trkpt>
      <trkpt lat="47.98129" lon="-4.17297">
        <ele>38.6</ele>
        <time>2022-06-04T06:35:54Z</time>
      </trkpt>
      <trkpt lat="47.98133" lon="-4.17284">
        <ele>38.3</ele>
        <time>2022-06-04T06:36:01Z</time>
      </trkpt>
      <trkpt lat="47.98139" lon="-4.17272">
        <ele>37.7</ele>
        <time>2022-06-04T06:36:10Z</time>
      </trkpt>
      <trkpt lat="47.98144" lon="-4.17261">
        <ele>37.7</ele>
        <time>2022-06-04T06:36:16Z</time>
      </trkpt>
      <trkpt lat="47.98149" lon="-4.17249">
        <ele>37.8</ele>
        <time>2022-06-04T06:36:23Z</time>
      </trkpt>
      <trkpt lat="47.98152" lon="-4.17236">
        <ele>37.5</ele>
        <time>2022-06-04T06:36:33Z</time>
      </trkpt>
      <trkpt lat="47.98151" lon="-4.17221">
        <ele>37</ele>
        <time>2022-06-04T06:36:41Z</time>
      </trkpt>
      <trkpt lat="47.98149" lon="-4.17206">
        <ele>36.2</ele>
        <time>2022-06-04T06:36:51Z</time>
      </trkpt>
      <trkpt lat="47.98145" lon="-4.17192">
        <ele>35.6</ele>
        <time>2022-06-04T06:36:59Z</time>
      </trkpt>
      <trkpt lat="47.98146" lon="-4.17178">
        <ele>35.6</ele>
        <time>2022-06-04T06:37:06Z</time>
      </trkpt>
      <trkpt lat="47.98144" lon="-4.17164">
        <ele>35.3</ele>
        <time>2022-06-04T06:37:13Z</time>
      </trkpt>
      <trkpt lat="47.98143" lon="-4.1715">
        <ele>34.7</ele>
        <time>2022-06-04T06:37:20Z</time>
      </trkpt>
      <trkpt lat="47.98143" lon="-4.17136">
        <ele>33.8</ele>
        <time>2022-06-04T06:37:28Z</time>
      </trkpt>
      <trkpt lat="47.98147" lon="-4.17122">
        <ele>32.4</ele>
        <time>2022-06-04T06:37:36Z</time>
      </trkpt>
      <trkpt lat="47.9815" lon="-4.17108">
        <ele>32.1</ele>
        <time>2022-06-04T06:37:43Z</time>
      </trkpt>
      <trkpt lat="47.98156" lon="-4.17097">
        <ele>31.7</ele>
        <time>2022-06-04T06:37:50Z</time>
      </trkpt>
      <trkpt lat="47.98163" lon="-4.17088">
        <ele>31.6</ele>
        <time>2022-06-04T06:38:00Z</time>
      </trkpt>
      <trkpt lat="47.98172" lon="-4.17082">
        <ele>31.5</ele>
        <time>2022-06-04T06:38:11Z</time>
      </trkpt>
      <trkpt lat="47.98182" lon="-4.17078">
        <ele>31.2</ele>
        <time>2022-06-04T06:38:20Z</time>
      </trkpt>
      <trkpt lat="47.98192" lon="-4.17076">
        <ele>31</ele>
        <time>2022-06-04T06:38:29Z</time>
      </trkpt>
      <trkpt lat="47.98202" lon="-4.17079">
        <ele>31</ele>
        <time>2022-06-04T06:38:39Z</time>
      </trkpt>
      <trkpt lat="47.9821" lon="-4.17084">
        <ele>30.7</ele>
        <time>2022-06-04T06:38:44Z</time>
      </trkpt>
      <trkpt lat="47.98218" lon="-4.17093">
        <ele>30.8</ele>
        <time>2022-06-04T06:38:53Z</time>
      </trkpt>
      <trkpt lat="47.98225" lon="-4.17103">
        <ele>30.7</ele>
        <time>2022-06-04T06:39:03Z</time>
      </trkpt>
      <trkpt lat="47.98233" lon="-4.17111">
        <ele>30.7</ele>
        <time>2022-06-04T06:39:10Z</time>
      </trkpt>
      <trkpt lat="47.9824" lon="-4.17119">
        <ele>30.9</ele>
        <time>2022-06-04T06:39:14Z</time>
      </trkpt>
      <trkpt lat="47.98249" lon="-4.17124">
        <ele>31</ele>
        <time>2022-06-04T06:39:22Z</time>
      </trkpt>
      <trkpt lat="47.98258" lon="-4.17125">
        <ele>30.9</ele>
        <time>2022-06-04T06:39:28Z</time>
      </trkpt>
      <trkpt lat="47.98268" lon="-4.17124">
        <ele>30.9</ele>
        <time>2022-06-04T06:39:35Z</time>
      </trkpt>
      <trkpt lat="47.98278" lon="-4.1712">
        <ele>30.7</ele>
        <time>2022-06-04T06:39:42Z</time>
      </trkpt>
      <trkpt lat="47.98288" lon="-4.17118">
        <ele>30.4</ele>
        <time>2022-06-04T06:39:49Z</time>
      </trkpt>
      <trkpt lat="47.98297" lon="-4.17116">
        <ele>30.5</ele>
        <time>2022-06-04T06:39:58Z</time>
      </trkpt>
      <trkpt lat="47.98307" lon="-4.17114">
        <ele>31</ele>
        <time>2022-06-04T06:40:07Z</time>
      </trkpt>
      <trkpt lat="47.98317" lon="-4.17115">
        <ele>31.9</ele>
        <time>2022-06-04T06:40:15Z</time>
      </trkpt>
      <trkpt lat="47.98326" lon="-4.17109">
        <ele>32.9</ele>
        <time>2022-06-04T06:40:24Z</time>
      </trkpt>
      <trkpt lat="47.98331" lon="-4.17096">
        <ele>32.9</ele>
        <time>2022-06-04T06:40:32Z</time>
      </trkpt>
      <trkpt lat="47.98338" lon="-4.17084">
        <ele>32</ele>
        <time>2022-06-04T06:40:40Z</time>
      </trkpt>
      <trkpt lat="47.98341" lon="-4.1707">
        <ele>31.2</ele>
        <time>2022-06-04T06:40:48Z</time>
      </trkpt>
      <trkpt lat="47.98346" lon="-4.17057">
        <ele>30.6</ele>
        <time>2022-06-04T06:40:56Z</time>
      </trkpt>
      <trkpt lat="47.9835" lon="-4.17045">
        <ele>30.4</ele>
        <time>2022-06-04T06:41:03Z</time>
      </trkpt>
      <trkpt lat="47.98355" lon="-4.17031">
        <ele>30.1</ele>
        <time>2022-06-04T06:41:10Z</time>
      </trkpt>
      <trkpt lat="47.98361" lon="-4.1702">
        <ele>29.8</ele>
        <time>2022-06-04T06:41:17Z</time>
      </trkpt>
      <trkpt lat="47.98368" lon="-4.17009">
        <ele>29.7</ele>
        <time>2022-06-04T06:41:25Z</time>
      </trkpt>
      <trkpt lat="47.98375" lon="-4.16999">
        <ele>29.5</ele>
        <time>2022-06-04T06:41:32Z</time>
      </trkpt>
      <trkpt lat="47.98382" lon="-4.16989">
        <ele>29.7</ele>
        <time>2022-06-04T06:41:39Z</time>
      </trkpt>
      <trkpt lat="47.98389" lon="-4.16979">
        <ele>29.7</ele>
        <time>2022-06-04T06:41:46Z</time>
      </trkpt>
      <trkpt lat="47.98395" lon="-4.16968">
        <ele>29.6</ele>
        <time>2022-06-04T06:41:54Z</time>
      </trkpt>
      <trkpt lat="47.98402" lon="-4.16958">
        <ele>29.3</ele>
        <time>2022-06-04T06:42:02Z</time>
      </trkpt>
      <trkpt lat="47.98409" lon="-4.16949">
        <ele>28.8</ele>
        <time>2022-06-04T06:42:09Z</time>
      </trkpt>
      <trkpt lat="47.98416" lon="-4.16939">
        <ele>28.4</ele>
        <time>2022-06-04T06:42:16Z</time>
      </trkpt>
      <trkpt lat="47.98423" lon="-4.16931">
        <ele>27.7</ele>
        <time>2022-06-04T06:42:24Z</time>
      </trkpt>
      <trkpt lat="47.98432" lon="-4.16926">
        <ele>27.2</ele>
        <time>2022-06-04T06:42:32Z</time>
      </trkpt>
      <trkpt lat="47.98442" lon="-4.16923">
        <ele>26.9</ele>
        <time>2022-06-04T06:42:39Z</time>
      </trkpt>
      <trkpt lat="47.98451" lon="-4.16929">
        <ele>26.6</ele>
        <time>2022-06-04T06:42:46Z</time>
      </trkpt>
      <trkpt lat="47.98456" lon="-4.16939">
        <ele>26.9</ele>
        <time>2022-06-04T06:42:56Z</time>
      </trkpt>
      <trkpt lat="47.98456" lon="-4.16953">
        <ele>27.4</ele>
        <time>2022-06-04T06:43:06Z</time>
      </trkpt>
      <trkpt lat="47.98455" lon="-4.16967">
        <ele>27.9</ele>
        <time>2022-06-04T06:43:16Z</time>
      </trkpt>
      <trkpt lat="47.98452" lon="-4.16981">
        <ele>28.2</ele>
        <time>2022-06-04T06:43:25Z</time>
      </trkpt>
      <trkpt lat="47.98445" lon="-4.16991">
        <ele>28.3</ele>
        <time>2022-06-04T06:43:33Z</time>
      </trkpt>
      <trkpt lat="47.98441" lon="-4.17004">
        <ele>28.2</ele>
        <time>2022-06-04T06:43:43Z</time>
      </trkpt>
      <trkpt lat="47.98435" lon="-4.17016">
        <ele>28.2</ele>
        <time>2022-06-04T06:43:50Z</time>
      </trkpt>
      <trkpt lat="47.9843" lon="-4.17028">
        <ele>28.3</ele>
        <time>2022-06-04T06:43:57Z</time>
      </trkpt>
      <trkpt lat="47.98429" lon="-4.17042">
        <ele>28.5</ele>
        <time>2022-06-04T06:44:03Z</time>
      </trkpt>
      <trkpt lat="47.98426" lon="-4.17057">
        <ele>28.8</ele>
        <time>2022-06-04T06:44:11Z</time>
      </trkpt>
      <trkpt lat="47.98421" lon="-4.1707">
        <ele>28.8</ele>
        <time>2022-06-04T06:44:19Z</time>
      </trkpt>
      <trkpt lat="47.9842" lon="-4.17084">
        <ele>28.8</ele>
        <time>2022-06-04T06:44:25Z</time>
      </trkpt>
      <trkpt lat="47.9842" lon="-4.17099">
        <ele>28.7</ele>
        <time>2022-06-04T06:44:32Z</time>
      </trkpt>
      <trkpt lat="47.9842" lon="-4.17113">
        <ele>28.7</ele>
        <time>2022-06-04T06:44:39Z</time>
      </trkpt>
      <trkpt lat="47.9842" lon="-4.17128">
        <ele>29</ele>
        <time>2022-06-04T06:44:47Z</time>
      </trkpt>
      <trkpt lat="47.98424" lon="-4.17143">
        <ele>29.2</ele>
        <time>2022-06-04T06:44:55Z</time>
      </trkpt>
      <trkpt lat="47.9843" lon="-4.17154">
        <ele>29.2</ele>
        <time>2022-06-04T06:45:04Z</time>
      </trkpt>
      <trkpt lat="47.98435" lon="-4.17167">
        <ele>29.6</ele>
        <time>2022-06-04T06:45:12Z</time>
      </trkpt>
      <trkpt lat="47.98442" lon="-4.17177">
        <ele>29.9</ele>
        <time>2022-06-04T06:45:19Z</time>
      </trkpt>
      <trkpt lat="47.98448" lon="-4.17187">
        <ele>30.7</ele>
        <time>2022-06-04T06:45:26Z</time>
      </trkpt>
      <trkpt lat="47.98452" lon="-4.172">
        <ele>31.5</ele>
        <time>2022-06-04T06:45:35Z</time>
      </trkpt>
      <trkpt lat="47.98454" lon="-4.17215">
        <ele>31.8</ele>
        <time>2022-06-04T06:45:44Z</time>
      </trkpt>
      <trkpt lat="47.98455" lon="-4.17229">
        <ele>32.1</ele>
        <time>2022-06-04T06:45:54Z</time>
      </trkpt>
      <trkpt lat="47.98456" lon="-4.17243">
        <ele>32.2</ele>
        <time>2022-06-04T06:46:01Z</time>
      </trkpt>
      <trkpt lat="47.98458" lon="-4.17257">
        <ele>32.1</ele>
        <time>2022-06-04T06:46:08Z</time>
      </trkpt>
      <trkpt lat="47.98462" lon="-4.17269">
        <ele>32.1</ele>
        <time>2022-06-04T06:46:16Z</time>
      </trkpt>
      <trkpt lat="47.9847" lon="-4.17278">
        <ele>32.4</ele>
        <time>2022-06-04T06:46:23Z</time>
      </trkpt>
      <trkpt lat="47.98477" lon="-4.17288">
        <ele>33.2</ele>
        <time>2022-06-04T06:46:31Z</time>
      </trkpt>
      <trkpt lat="47.98485" lon="-4.17295">
        <ele>34.1</ele>
        <time>2022-06-04T06:46:40Z</time>
      </trkpt>
      <trkpt lat="47.98494" lon="-4.17302">
        <ele>35.2</ele>
        <time>2022-06-04T06:46:48Z</time>
      </trkpt>
      <trkpt lat="47.98502" lon="-4.17308">
        <ele>36.1</ele>
        <time>2022-06-04T06:46:55Z</time>
      </trkpt>
      <trkpt lat="47.98509" lon="-4.17318">
        <ele>37.5</ele>
        <time>2022-06-04T06:47:04Z</time>
      </trkpt>
      <trkpt lat="47.98516" lon="-4.17328">
        <ele>38.6</ele>
        <time>2022-06-04T06:47:14Z</time>
      </trkpt>
      <trkpt lat="47.98524" lon="-4.17337">
        <ele>39.6</ele>
        <time>2022-06-04T06:47:22Z</time>
      </trkpt>
      <trkpt lat="47.9853" lon="-4.17351">
        <ele>40.2</ele>
        <time>2022-06-04T06:47:29Z</time>
      </trkpt>
      <trkpt lat="47.98534" lon="-4.17364">
        <ele>40.6</ele>
        <time>2022-06-04T06:47:36Z</time>
      </trkpt>
      <trkpt lat="47.98538" lon="-4.17379">
        <ele>40.9</ele>
        <time>2022-06-04T06:47:44Z</time>
      </trkpt>
      <trkpt lat="47.98543" lon="-4.17391">
        <ele>41.1</ele>
        <time>2022-06-04T06:47:54Z</time>
      </trkpt>
      <trkpt lat="47.98547" lon="-4.17403">
        <ele>41.6</ele>
        <time>2022-06-04T06:48:03Z</time>
      </trkpt>
      <trkpt lat="47.98551" lon="-4.17416">
        <ele>41.6</ele>
        <time>2022-06-04T06:48:12Z</time>
      </trkpt>
      <trkpt lat="47.98554" lon="-4.17429">
        <ele>42</ele>
        <time>2022-06-04T06:48:20Z</time>
      </trkpt>
      <trkpt lat="47.98558" lon="-4.17443">
        <ele>42.1</ele>
        <time>2022-06-04T06:48:30Z</time>
      </trkpt>
      <trkpt lat="47.98562" lon="-4.17455">
        <ele>41.9</ele>
        <time>2022-06-04T06:48:39Z</time>
      </trkpt>
      <trkpt lat="47.98568" lon="-4.17467">
        <ele>42</ele>
        <time>2022-06-04T06:48:47Z</time>
      </trkpt>
      <trkpt lat="47.98575" lon="-4.17479">
        <ele>42.5</ele>
        <time>2022-06-04T06:48:54Z</time>
      </trkpt>
      <trkpt lat="47.98582" lon="-4.17489">
        <ele>42.8</ele>
        <time>2022-06-04T06:49:00Z</time>
      </trkpt>
      <trkpt lat="47.98588" lon="-4.17499">
        <ele>43</ele>
        <time>2022-06-04T06:49:07Z</time>
      </trkpt>
      <trkpt lat="47.98596" lon="-4.1751">
        <ele>43.5</ele>
        <time>2022-06-04T06:49:14Z</time>
      </trkpt>
      <trkpt lat="47.98602" lon="-4.17521">
        <ele>43.7</ele>
        <time>2022-06-04T06:49:21Z</time>
      </trkpt>
      <trkpt lat="47.98607" lon="-4.17534">
        <ele>44.3</ele>
        <time>2022-06-04T06:49:28Z</time>
      </trkpt>
      <trkpt lat="47.98611" lon="-4.17545">
        <ele>44.5</ele>
        <time>2022-06-04T06:49:36Z</time>
      </trkpt>
      <trkpt lat="47.98612" lon="-4.17559">
        <ele>44.1</ele>
        <time>2022-06-04T06:49:47Z</time>
      </trkpt>
      <trkpt lat="47.9861" lon="-4.17573">
        <ele>43.6</ele>
        <time>2022-06-04T06:49:56Z</time>
      </trkpt>
      <trkpt lat="47.98608" lon="-4.17587">
        <ele>43.1</ele>
        <time>2022-06-04T06:50:04Z</time>
      </trkpt>
      <trkpt lat="47.98605" lon="-4.17601">
        <ele>42.4</ele>
        <time>2022-06-04T06:50:12Z</time>
      </trkpt>
      <trkpt lat="47.98597" lon="-4.17608">
        <ele>42.2</ele>
        <time>2022-06-04T06:50:25Z</time>
      </trkpt>
      <trkpt lat="47.98588" lon="-4.17609">
        <ele>41.6</ele>
        <time>2022-06-04T06:50:34Z</time>
      </trkpt>
      <trkpt lat="47.9858" lon="-4.17602">
        <ele>40.7</ele>
        <time>2022-06-04T06:50:46Z</time>
      </trkpt>
      <trkpt lat="47.9858" lon="-4.17589">
        <ele>39.7</ele>
        <time>2022-06-04T06:51:09Z</time>
      </trkpt>
      <trkpt lat="47.98574" lon="-4.17579">
        <ele>39.9</ele>
        <time>2022-06-04T06:51:40Z</time>
      </trkpt>
      <trkpt lat="47.98569" lon="-4.17567">
        <ele>39.8</ele>
        <time>2022-06-04T06:51:51Z</time>
      </trkpt>
      <trkpt lat="47.98563" lon="-4.17555">
        <ele>39.6</ele>
        <time>2022-06-04T06:52:00Z</time>
      </trkpt>
      <trkpt lat="47.98557" lon="-4.17543">
        <ele>39</ele>
        <time>2022-06-04T06:52:07Z</time>
      </trkpt>
      <trkpt lat="47.98553" lon="-4.17529">
        <ele>38.7</ele>
        <time>2022-06-04T06:52:19Z</time>
      </trkpt>
      <trkpt lat="47.98547" lon="-4.17519">
        <ele>38.7</ele>
        <time>2022-06-04T06:52:26Z</time>
      </trkpt>
      <trkpt lat="47.9854" lon="-4.17508">
        <ele>38.4</ele>
        <time>2022-06-04T06:52:37Z</time>
      </trkpt>
      <trkpt lat="47.98536" lon="-4.17496">
        <ele>38</ele>
        <time>2022-06-04T06:52:45Z</time>
      </trkpt>
      <trkpt lat="47.98531" lon="-4.17485">
        <ele>37.3</ele>
        <time>2022-06-04T06:52:53Z</time>
      </trkpt>
      <trkpt lat="47.98528" lon="-4.17471">
        <ele>36.8</ele>
        <time>2022-06-04T06:53:00Z</time>
      </trkpt>
      <trkpt lat="47.98523" lon="-4.1746">
        <ele>36.5</ele>
        <time>2022-06-04T06:53:08Z</time>
      </trkpt>
      <trkpt lat="47.98519" lon="-4.17448">
        <ele>36.2</ele>
        <time>2022-06-04T06:53:27Z</time>
      </trkpt>
      <trkpt lat="47.98513" lon="-4.17436">
        <ele>35.9</ele>
        <time>2022-06-04T06:53:38Z</time>
      </trkpt>
      <trkpt lat="47.98508" lon="-4.17426">
        <ele>36</ele>
        <time>2022-06-04T06:53:48Z</time>
      </trkpt>
      <trkpt lat="47.98503" lon="-4.17415">
        <ele>36</ele>
        <time>2022-06-04T06:53:56Z</time>
      </trkpt>
      <trkpt lat="47.985" lon="-4.174">
        <ele>35.8</ele>
        <time>2022-06-04T06:54:05Z</time>
      </trkpt>
      <trkpt lat="47.98498" lon="-4.17387">
        <ele>34.8</ele>
        <time>2022-06-04T06:54:14Z</time>
      </trkpt>
      <trkpt lat="47.98495" lon="-4.17374">
        <ele>34.1</ele>
        <time>2022-06-04T06:54:23Z</time>
      </trkpt>
      <trkpt lat="47.98491" lon="-4.17361">
        <ele>34.1</ele>
        <time>2022-06-04T06:54:32Z</time>
      </trkpt>
      <trkpt lat="47.98485" lon="-4.17348">
        <ele>33.9</ele>
        <time>2022-06-04T06:54:41Z</time>
      </trkpt>
      <trkpt lat="47.98481" lon="-4.17335">
        <ele>33.4</ele>
        <time>2022-06-04T06:54:51Z</time>
      </trkpt>
      <trkpt lat="47.98475" lon="-4.17323">
        <ele>33.1</ele>
        <time>2022-06-04T06:54:59Z</time>
      </trkpt>
      <trkpt lat="47.98464" lon="-4.17316">
        <ele>32.9</ele>
        <time>2022-06-04T06:55:08Z</time>
      </trkpt>
      <trkpt lat="47.98455" lon="-4.17321">
        <ele>33</ele>
        <time>2022-06-04T06:55:13Z</time>
      </trkpt>
      <trkpt lat="47.98455" lon="-4.17336">
        <ele>33.5</ele>
        <time>2022-06-04T06:55:21Z</time>
      </trkpt>
      <trkpt lat="47.98452" lon="-4.1735">
        <ele>34.1</ele>
        <time>2022-06-04T06:55:30Z</time>
      </trkpt>
      <trkpt lat="47.98449" lon="-4.17363">
        <ele>34.6</ele>
        <time>2022-06-04T06:55:38Z</time>
      </trkpt>
      <trkpt lat="47.98447" lon="-4.17378">
        <ele>35.3</ele>
        <time>2022-06-04T06:55:46Z</time>
      </trkpt>
      <trkpt lat="47.98445" lon="-4.17392">
        <ele>35.7</ele>
        <time>2022-06-04T06:55:53Z</time>
      </trkpt>
      <trkpt lat="47.98442" lon="-4.17405">
        <ele>36.1</ele>
        <time>2022-06-04T06:56:01Z</time>
      </trkpt>
      <trkpt lat="47.9844" lon="-4.17418">
        <ele>36.7</ele>
        <time>2022-06-04T06:56:10Z</time>
      </trkpt>
      <trkpt lat="47.9844" lon="-4.17432">
        <ele>37.6</ele>
        <time>2022-06-04T06:56:18Z</time>
      </trkpt>
      <trkpt lat="47.98439" lon="-4.17446">
        <ele>37.9</ele>
        <time>2022-06-04T06:56:26Z</time>
      </trkpt>
      <trkpt lat="47.98439" lon="-4.17461">
        <ele>38.6</ele>
        <time>2022-06-04T06:56:34Z</time>
      </trkpt>
      <trkpt lat="47.98438" lon="-4.17474">
        <ele>39.1</ele>
        <time>2022-06-04T06:56:42Z</time>
      </trkpt>
      <trkpt lat="47.98438" lon="-4.17488">
        <ele>39.9</ele>
        <time>2022-06-04T06:57:13Z</time>
      </trkpt>
      <trkpt lat="47.98436" lon="-4.17502">
        <ele>40.6</ele>
        <time>2022-06-04T06:57:23Z</time>
      </trkpt>
      <trkpt lat="47.98433" lon="-4.17516">
        <ele>41.3</ele>
        <time>2022-06-04T06:57:33Z</time>
      </trkpt>
      <trkpt lat="47.98431" lon="-4.1753">
        <ele>41.9</ele>
        <time>2022-06-04T06:57:42Z</time>
      </trkpt>
      <trkpt lat="47.98428" lon="-4.17544">
        <ele>42.4</ele>
        <time>2022-06-04T06:57:49Z</time>
      </trkpt>
      <trkpt lat="47.98426" lon="-4.17559">
        <ele>43.1</ele>
        <time>2022-06-04T06:57:56Z</time>
      </trkpt>
      <trkpt lat="47.98425" lon="-4.17573">
        <ele>44.2</ele>
        <time>2022-06-04T06:58:04Z</time>
      </trkpt>
      <trkpt lat="47.98427" lon="-4.17586">
        <ele>46.7</ele>
        <time>2022-06-04T06:58:22Z</time>
      </trkpt>
      <trkpt lat="47.98437" lon="-4.17588">
        <ele>48.6</ele>
        <time>2022-06-04T06:58:33Z</time>
      </trkpt>
      <trkpt lat="47.98446" lon="-4.17591">
        <ele>49.9</ele>
        <time>2022-06-04T06:58:42Z</time>
      </trkpt>
      <trkpt lat="47.98456" lon="-4.17594">
        <ele>50.9</ele>
        <time>2022-06-04T06:58:51Z</time>
      </trkpt>
      <trkpt lat="47.98465" lon="-4.17599">
        <ele>52</ele>
        <time>2022-06-04T06:58:59Z</time>
      </trkpt>
      <trkpt lat="47.98474" lon="-4.176">
        <ele>52.9</ele>
        <time>2022-06-04T06:59:06Z</time>
      </trkpt>
      <trkpt lat="47.98484" lon="-4.17603">
        <ele>53.9</ele>
        <time>2022-06-04T06:59:13Z</time>
      </trkpt>
      <trkpt lat="47.98493" lon="-4.17607">
        <ele>54.5</ele>
        <time>2022-06-04T06:59:20Z</time>
      </trkpt>
      <trkpt lat="47.98502" lon="-4.17611">
        <ele>54.9</ele>
        <time>2022-06-04T06:59:27Z</time>
      </trkpt>
      <trkpt lat="47.98511" lon="-4.17616">
        <ele>55.5</ele>
        <time>2022-06-04T06:59:36Z</time>
      </trkpt>
      <trkpt lat="47.9852" lon="-4.17618">
        <ele>55.7</ele>
        <time>2022-06-04T06:59:52Z</time>
      </trkpt>
      <trkpt lat="47.98529" lon="-4.17619">
        <ele>55.5</ele>
        <time>2022-06-04T07:00:03Z</time>
      </trkpt>
      <trkpt lat="47.98537" lon="-4.17625">
        <ele>55</ele>
        <time>2022-06-04T07:00:12Z</time>
      </trkpt>
      <trkpt lat="47.9854" lon="-4.17638">
        <ele>54.8</ele>
        <time>2022-06-04T07:00:28Z</time>
      </trkpt>
      <trkpt lat="47.9854" lon="-4.17652">
        <ele>56.1</ele>
        <time>2022-06-04T07:00:39Z</time>
      </trkpt>
      <trkpt lat="47.98537" lon="-4.17665">
        <ele>57.2</ele>
        <time>2022-06-04T07:00:47Z</time>
      </trkpt>
      <trkpt lat="47.98533" lon="-4.17677">
        <ele>57.9</ele>
        <time>2022-06-04T07:00:55Z</time>
      </trkpt>
      <trkpt lat="47.98527" lon="-4.17689">
        <ele>58.6</ele>
        <time>2022-06-04T07:01:01Z</time>
      </trkpt>
      <trkpt lat="47.98521" lon="-4.17701">
        <ele>59.4</ele>
        <time>2022-06-04T07:01:09Z</time>
      </trkpt>
      <trkpt lat="47.98523" lon="-4.17715">
        <ele>59.5</ele>
        <time>2022-06-04T07:01:18Z</time>
      </trkpt>
      <trkpt lat="47.98528" lon="-4.17727">
        <ele>59.3</ele>
        <time>2022-06-04T07:01:26Z</time>
      </trkpt>
      <trkpt lat="47.9853" lon="-4.17741">
        <ele>58.9</ele>
        <time>2022-06-04T07:01:33Z</time>
      </trkpt>
      <trkpt lat="47.98529" lon="-4.17755">
        <ele>58.9</ele>
        <time>2022-06-04T07:01:40Z</time>
      </trkpt>
      <trkpt lat="47.98529" lon="-4.17769">
        <ele>59.6</ele>
        <time>2022-06-04T07:01:47Z</time>
      </trkpt>
      <trkpt lat="47.98529" lon="-4.17783">
        <ele>60.6</ele>
        <time>2022-06-04T07:01:54Z</time>
      </trkpt>
      <trkpt lat="47.98527" lon="-4.17798">
        <ele>62.1</ele>
        <time>2022-06-04T07:02:03Z</time>
      </trkpt>
      <trkpt lat="47.98526" lon="-4.17811">
        <ele>64.8</ele>
        <time>2022-06-04T07:02:13Z</time>
      </trkpt>
      <trkpt lat="47.98527" lon="-4.17824">
        <ele>66.7</ele>
        <time>2022-06-04T07:02:21Z</time>
      </trkpt>
      <trkpt lat="47.98531" lon="-4.17838">
        <ele>68.5</ele>
        <time>2022-06-04T07:02:30Z</time>
      </trkpt>
      <trkpt lat="47.9854" lon="-4.17844">
        <ele>70.7</ele>
        <time>2022-06-04T07:02:40Z</time>
      </trkpt>
      <trkpt lat="47.98549" lon="-4.17846">
        <ele>71.9</ele>
        <time>2022-06-04T07:02:51Z</time>
      </trkpt>
      <trkpt lat="47.98559" lon="-4.17851">
        <ele>72.5</ele>
        <time>2022-06-04T07:03:00Z</time>
      </trkpt>
      <trkpt lat="47.98568" lon="-4.17858">
        <ele>72.5</ele>
        <time>2022-06-04T07:03:09Z</time>
      </trkpt>
      <trkpt lat="47.98576" lon="-4.17863">
        <ele>72.3</ele>
        <time>2022-06-04T07:03:17Z</time>
      </trkpt>
      <trkpt lat="47.98585" lon="-4.17866">
        <ele>72.3</ele>
        <time>2022-06-04T07:03:25Z</time>
      </trkpt>
      <trkpt lat="47.98594" lon="-4.17866">
        <ele>72.9</ele>
        <time>2022-06-04T07:03:33Z</time>
      </trkpt>
      <trkpt lat="47.98605" lon="-4.17866">
        <ele>73.4</ele>
        <time>2022-06-04T07:03:41Z</time>
      </trkpt>
      <trkpt lat="47.98613" lon="-4.17862">
        <ele>73.7</ele>
        <time>2022-06-04T07:03:49Z</time>
      </trkpt>
      <trkpt lat="47.98618" lon="-4.1785">
        <ele>73.3</ele>
        <time>2022-06-04T07:03:58Z</time>
      </trkpt>
      <trkpt lat="47.98627" lon="-4.17845">
        <ele>71.8</ele>
        <time>2022-06-04T07:04:08Z</time>
      </trkpt>
      <trkpt lat="47.98637" lon="-4.17845">
        <ele>70.5</ele>
        <time>2022-06-04T07:04:17Z</time>
      </trkpt>
      <trkpt lat="47.98646" lon="-4.17847">
        <ele>69.7</ele>
        <time>2022-06-04T07:04:27Z</time>
      </trkpt>
      <trkpt lat="47.98655" lon="-4.17852">
        <ele>68.4</ele>
        <time>2022-06-04T07:04:37Z</time>
      </trkpt>
      <trkpt lat="47.98663" lon="-4.17859">
        <ele>67.9</ele>
        <time>2022-06-04T07:04:46Z</time>
      </trkpt>
      <trkpt lat="47.98672" lon="-4.17863">
        <ele>66.5</ele>
        <time>2022-06-04T07:04:57Z</time>
      </trkpt>
      <trkpt lat="47.98674" lon="-4.17877">
        <ele>67.9</ele>
        <time>2022-06-04T07:05:11Z</time>
      </trkpt>
      <trkpt lat="47.9868" lon="-4.1789">
        <ele>68.6</ele>
        <time>2022-06-04T07:05:17Z</time>
      </trkpt>
      <trkpt lat="47.98686" lon="-4.17902">
        <ele>69.2</ele>
        <time>2022-06-04T07:05:25Z</time>
      </trkpt>
      <trkpt lat="47.98687" lon="-4.17916">
        <ele>70.6</ele>
        <time>2022-06-04T07:05:35Z</time>
      </trkpt>
      <trkpt lat="47.98689" lon="-4.17929">
        <ele>72.3</ele>
        <time>2022-06-04T07:05:45Z</time>
      </trkpt>
      <trkpt lat="47.98696" lon="-4.17938">
        <ele>73.4</ele>
        <time>2022-06-04T07:06:20Z</time>
      </trkpt>
      <trkpt lat="47.98687" lon="-4.17941">
        <ele>75.8</ele>
        <time>2022-06-04T07:06:40Z</time>
      </trkpt>
      <trkpt lat="47.98686" lon="-4.17954">
        <ele>78.6</ele>
        <time>2022-06-04T07:07:05Z</time>
      </trkpt>
      <trkpt lat="47.98692" lon="-4.17966">
        <ele>79.4</ele>
        <time>2022-06-04T07:07:12Z</time>
      </trkpt>
      <trkpt lat="47.98694" lon="-4.17979">
        <ele>80.6</ele>
        <time>2022-06-04T07:07:21Z</time>
      </trkpt>
      <trkpt lat="47.98699" lon="-4.17993">
        <ele>81.3</ele>
        <time>2022-06-04T07:07:28Z</time>
      </trkpt>
      <trkpt lat="47.98706" lon="-4.18002">
        <ele>82.1</ele>
        <time>2022-06-04T07:07:34Z</time>
      </trkpt>
      <trkpt lat="47.98713" lon="-4.18012">
        <ele>82.5</ele>
        <time>2022-06-04T07:07:41Z</time>
      </trkpt>
      <trkpt lat="47.98719" lon="-4.18022">
        <ele>82.3</ele>
        <time>2022-06-04T07:07:48Z</time>
      </trkpt>
      <trkpt lat="47.98728" lon="-4.18028">
        <ele>82.2</ele>
        <time>2022-06-04T07:08:00Z</time>
      </trkpt>
      <trkpt lat="47.98737" lon="-4.18035">
        <ele>82.4</ele>
        <time>2022-06-04T07:08:07Z</time>
      </trkpt>
      <trkpt lat="47.98745" lon="-4.18042">
        <ele>83.1</ele>
        <time>2022-06-04T07:08:12Z</time>
      </trkpt>
      <trkpt lat="47.98754" lon="-4.18047">
        <ele>84.1</ele>
        <time>2022-06-04T07:08:21Z</time>
      </trkpt>
      <trkpt lat="47.98754" lon="-4.18062">
        <ele>84.9</ele>
        <time>2022-06-04T07:08:38Z</time>
      </trkpt>
      <trkpt lat="47.98748" lon="-4.18072">
        <ele>85.1</ele>
        <time>2022-06-04T07:08:47Z</time>
      </trkpt>
      <trkpt lat="47.98746" lon="-4.18086">
        <ele>85.6</ele>
        <time>2022-06-04T07:08:56Z</time>
      </trkpt>
      <trkpt lat="47.9875" lon="-4.181">
        <ele>86</ele>
        <time>2022-06-04T07:09:03Z</time>
      </trkpt>
      <trkpt lat="47.98753" lon="-4.18114">
        <ele>86.2</ele>
        <time>2022-06-04T07:09:11Z</time>
      </trkpt>
      <trkpt lat="47.98756" lon="-4.18127">
        <ele>86.2</ele>
        <time>2022-06-04T07:09:18Z</time>
      </trkpt>
      <trkpt lat="47.98757" lon="-4.18142">
        <ele>86.2</ele>
        <time>2022-06-04T07:09:27Z</time>
      </trkpt>
      <trkpt lat="47.98761" lon="-4.18155">
        <ele>86.2</ele>
        <time>2022-06-04T07:09:34Z</time>
      </trkpt>
      <trkpt lat="47.98765" lon="-4.18168">
        <ele>86.2</ele>
        <time>2022-06-04T07:09:40Z</time>
      </trkpt>
      <trkpt lat="47.98766" lon="-4.18181">
        <ele>86.2</ele>
        <time>2022-06-04T07:09:48Z</time>
      </trkpt>
      <trkpt lat="47.98769" lon="-4.18196">
        <ele>86.8</ele>
        <time>2022-06-04T07:09:57Z</time>
      </trkpt>
      <trkpt lat="47.98771" lon="-4.1821">
        <ele>87.2</ele>
        <time>2022-06-04T07:10:04Z</time>
      </trkpt>
      <trkpt lat="47.98773" lon="-4.18224">
        <ele>87.3</ele>
        <time>2022-06-04T07:10:11Z</time>
      </trkpt>
      <trkpt lat="47.98778" lon="-4.18238">
        <ele>87.5</ele>
        <time>2022-06-04T07:10:18Z</time>
      </trkpt>
      <trkpt lat="47.98778" lon="-4.18253">
        <ele>87.7</ele>
        <time>2022-06-04T07:10:25Z</time>
      </trkpt>
      <trkpt lat="47.98778" lon="-4.18268">
        <ele>87.8</ele>
        <time>2022-06-04T07:10:32Z</time>
      </trkpt>
      <trkpt lat="47.98776" lon="-4.18283">
        <ele>88.3</ele>
        <time>2022-06-04T07:10:39Z</time>
      </trkpt>
      <trkpt lat="47.98775" lon="-4.18298">
        <ele>89.2</ele>
        <time>2022-06-04T07:10:47Z</time>
      </trkpt>
      <trkpt lat="47.98773" lon="-4.18312">
        <ele>89.9</ele>
        <time>2022-06-04T07:10:57Z</time>
      </trkpt>
      <trkpt lat="47.98782" lon="-4.18317">
        <ele>90.9</ele>
        <time>2022-06-04T07:11:15Z</time>
      </trkpt>
      <trkpt lat="47.9879" lon="-4.18322">
        <ele>91</ele>
        <time>2022-06-04T07:11:22Z</time>
      </trkpt>
      <trkpt lat="47.98795" lon="-4.18335">
        <ele>91.2</ele>
        <time>2022-06-04T07:11:31Z</time>
      </trkpt>
      <trkpt lat="47.98803" lon="-4.18343">
        <ele>91.8</ele>
        <time>2022-06-04T07:11:39Z</time>
      </trkpt>
      <trkpt lat="47.98812" lon="-4.18348">
        <ele>92.1</ele>
        <time>2022-06-04T07:11:47Z</time>
      </trkpt>
      <trkpt lat="47.98822" lon="-4.18353">
        <ele>92.3</ele>
        <time>2022-06-04T07:11:56Z</time>
      </trkpt>
      <trkpt lat="47.9883" lon="-4.18357">
        <ele>92.7</ele>
        <time>2022-06-04T07:12:05Z</time>
      </trkpt>
      <trkpt lat="47.98839" lon="-4.18363">
        <ele>92.8</ele>
        <time>2022-06-04T07:12:10Z</time>
      </trkpt>
      <trkpt lat="47.98847" lon="-4.18367">
        <ele>93.2</ele>
        <time>2022-06-04T07:12:16Z</time>
      </trkpt>
      <trkpt lat="47.98856" lon="-4.18369">
        <ele>93.4</ele>
        <time>2022-06-04T07:12:23Z</time>
      </trkpt>
      <trkpt lat="47.98865" lon="-4.18373">
        <ele>93.4</ele>
        <time>2022-06-04T07:12:30Z</time>
      </trkpt>
      <trkpt lat="47.98874" lon="-4.18377">
        <ele>93.5</ele>
        <time>2022-06-04T07:12:37Z</time>
      </trkpt>
      <trkpt lat="47.98883" lon="-4.1838">
        <ele>93.8</ele>
        <time>2022-06-04T07:12:44Z</time>
      </trkpt>
      <trkpt lat="47.98893" lon="-4.18384">
        <ele>93.6</ele>
        <time>2022-06-04T07:12:51Z</time>
      </trkpt>
      <trkpt lat="47.98903" lon="-4.18387">
        <ele>93.5</ele>
        <time>2022-06-04T07:12:58Z</time>
      </trkpt>
      <trkpt lat="47.98912" lon="-4.1839">
        <ele>93.7</ele>
        <time>2022-06-04T07:13:05Z</time>
      </trkpt>
      <trkpt lat="47.98922" lon="-4.18395">
        <ele>93.5</ele>
        <time>2022-06-04T07:13:13Z</time>
      </trkpt>
      <trkpt lat="47.98931" lon="-4.18399">
        <ele>93.7</ele>
        <time>2022-06-04T07:13:20Z</time>
      </trkpt>
      <trkpt lat="47.98941" lon="-4.18401">
        <ele>94.2</ele>
        <time>2022-06-04T07:13:27Z</time>
      </trkpt>
      <trkpt lat="47.9895" lon="-4.18406">
        <ele>94.4</ele>
        <time>2022-06-04T07:13:35Z</time>
      </trkpt>
      <trkpt lat="47.98959" lon="-4.18412">
        <ele>94.5</ele>
        <time>2022-06-04T07:13:42Z</time>
      </trkpt>
      <trkpt lat="47.98966" lon="-4.1842">
        <ele>95.1</ele>
        <time>2022-06-04T07:13:49Z</time>
      </trkpt>
      <trkpt lat="47.98966" lon="-4.18434">
        <ele>96.4</ele>
        <time>2022-06-04T07:13:59Z</time>
      </trkpt>
      <trkpt lat="47.98961" lon="-4.18447">
        <ele>97.4</ele>
        <time>2022-06-04T07:14:07Z</time>
      </trkpt>
      <trkpt lat="47.98959" lon="-4.18461">
        <ele>98.1</ele>
        <time>2022-06-04T07:14:15Z</time>
      </trkpt>
      <trkpt lat="47.98957" lon="-4.18475">
        <ele>99.1</ele>
        <time>2022-06-04T07:14:23Z</time>
      </trkpt>
      <trkpt lat="47.98956" lon="-4.18489">
        <ele>100</ele>
        <time>2022-06-04T07:14:30Z</time>
      </trkpt>
      <trkpt lat="47.98954" lon="-4.18502">
        <ele>100.6</ele>
        <time>2022-06-04T07:14:37Z</time>
      </trkpt>
      <trkpt lat="47.98948" lon="-4.18515">
        <ele>101.4</ele>
        <time>2022-06-04T07:14:45Z</time>
      </trkpt>
      <trkpt lat="47.9894" lon="-4.18523">
        <ele>102.2</ele>
        <time>2022-06-04T07:14:52Z</time>
      </trkpt>
      <trkpt lat="47.98932" lon="-4.18531">
        <ele>102.9</ele>
        <time>2022-06-04T07:14:59Z</time>
      </trkpt>
      <trkpt lat="47.98926" lon="-4.18541">
        <ele>103.4</ele>
        <time>2022-06-04T07:15:06Z</time>
      </trkpt>
      <trkpt lat="47.98927" lon="-4.18556">
        <ele>103.8</ele>
        <time>2022-06-04T07:15:15Z</time>
      </trkpt>
      <trkpt lat="47.98931" lon="-4.18569">
        <ele>104</ele>
        <time>2022-06-04T07:15:22Z</time>
      </trkpt>
      <trkpt lat="47.98929" lon="-4.18582">
        <ele>104.2</ele>
        <time>2022-06-04T07:15:29Z</time>
      </trkpt>
      <trkpt lat="47.98926" lon="-4.18596">
        <ele>104.6</ele>
        <time>2022-06-04T07:15:35Z</time>
      </trkpt>
      <trkpt lat="47.98922" lon="-4.18611">
        <ele>104.8</ele>
        <time>2022-06-04T07:15:42Z</time>
      </trkpt>
      <trkpt lat="47.9892" lon="-4.18625">
        <ele>105</ele>
        <time>2022-06-04T07:15:49Z</time>
      </trkpt>
      <trkpt lat="47.98915" lon="-4.18638">
        <ele>105.4</ele>
        <time>2022-06-04T07:15:57Z</time>
      </trkpt>
      <trkpt lat="47.98912" lon="-4.18651">
        <ele>105.5</ele>
        <time>2022-06-04T07:16:04Z</time>
      </trkpt>
      <trkpt lat="47.98908" lon="-4.18665">
        <ele>105.5</ele>
        <time>2022-06-04T07:16:11Z</time>
      </trkpt>
      <trkpt lat="47.98903" lon="-4.18678">
        <ele>105.5</ele>
        <time>2022-06-04T07:16:19Z</time>
      </trkpt>
      <trkpt lat="47.98898" lon="-4.18691">
        <ele>105.3</ele>
        <time>2022-06-04T07:16:27Z</time>
      </trkpt>
      <trkpt lat="47.98894" lon="-4.18704">
        <ele>104.8</ele>
        <time>2022-06-04T07:16:34Z</time>
      </trkpt>
      <trkpt lat="47.98889" lon="-4.18715">
        <ele>104.6</ele>
        <time>2022-06-04T07:16:41Z</time>
      </trkpt>
      <trkpt lat="47.98884" lon="-4.18727">
        <ele>104.4</ele>
        <time>2022-06-04T07:16:48Z</time>
      </trkpt>
      <trkpt lat="47.98879" lon="-4.18739">
        <ele>104</ele>
        <time>2022-06-04T07:16:55Z</time>
      </trkpt>
      <trkpt lat="47.9887" lon="-4.18739">
        <ele>103.5</ele>
        <time>2022-06-04T07:17:03Z</time>
      </trkpt>
      <trkpt lat="47.98861" lon="-4.18743">
        <ele>102.8</ele>
        <time>2022-06-04T07:17:10Z</time>
      </trkpt>
      <trkpt lat="47.98854" lon="-4.18752">
        <ele>102.4</ele>
        <time>2022-06-04T07:17:17Z</time>
      </trkpt>
      <trkpt lat="47.98845" lon="-4.18759">
        <ele>102</ele>
        <time>2022-06-04T07:17:27Z</time>
      </trkpt>
      <trkpt lat="47.98836" lon="-4.18758">
        <ele>101.7</ele>
        <time>2022-06-04T07:17:35Z</time>
      </trkpt>
      <trkpt lat="47.98827" lon="-4.1876">
        <ele>101.1</ele>
        <time>2022-06-04T07:17:42Z</time>
      </trkpt>
      <trkpt lat="47.98818" lon="-4.18763">
        <ele>101</ele>
        <time>2022-06-04T07:17:49Z</time>
      </trkpt>
      <trkpt lat="47.98809" lon="-4.18765">
        <ele>100.9</ele>
        <time>2022-06-04T07:17:56Z</time>
      </trkpt>
      <trkpt lat="47.98799" lon="-4.18768">
        <ele>101.1</ele>
        <time>2022-06-04T07:18:04Z</time>
      </trkpt>
      <trkpt lat="47.9879" lon="-4.18769">
        <ele>101.3</ele>
        <time>2022-06-04T07:18:11Z</time>
      </trkpt>
      <trkpt lat="47.9878" lon="-4.18772">
        <ele>101.5</ele>
        <time>2022-06-04T07:18:20Z</time>
      </trkpt>
      <trkpt lat="47.9877" lon="-4.18775">
        <ele>101.4</ele>
        <time>2022-06-04T07:18:28Z</time>
      </trkpt>
      <trkpt lat="47.98761" lon="-4.18777">
        <ele>101.3</ele>
        <time>2022-06-04T07:18:35Z</time>
      </trkpt>
      <trkpt lat="47.98752" lon="-4.18778">
        <ele>101.3</ele>
        <time>2022-06-04T07:18:42Z</time>
      </trkpt>
      <trkpt lat="47.98742" lon="-4.18779">
        <ele>101.6</ele>
        <time>2022-06-04T07:18:50Z</time>
      </trkpt>
      <trkpt lat="47.98732" lon="-4.18778">
        <ele>101.9</ele>
        <time>2022-06-04T07:18:56Z</time>
      </trkpt>
      <trkpt lat="47.98723" lon="-4.18781">
        <ele>102.1</ele>
        <time>2022-06-04T07:19:03Z</time>
      </trkpt>
      <trkpt lat="47.98714" lon="-4.1878">
        <ele>102.4</ele>
        <time>2022-06-04T07:19:11Z</time>
      </trkpt>
      <trkpt lat="47.98704" lon="-4.18779">
        <ele>102.5</ele>
        <time>2022-06-04T07:19:18Z</time>
      </trkpt>
      <trkpt lat="47.98694" lon="-4.18778">
        <ele>102.7</ele>
        <time>2022-06-04T07:19:25Z</time>
      </trkpt>
      <trkpt lat="47.98685" lon="-4.1878">
        <ele>102.5</ele>
        <time>2022-06-04T07:19:32Z</time>
      </trkpt>
      <trkpt lat="47.98676" lon="-4.1878">
        <ele>102.4</ele>
        <time>2022-06-04T07:19:39Z</time>
      </trkpt>
      <trkpt lat="47.98666" lon="-4.18779">
        <ele>102.6</ele>
        <time>2022-06-04T07:19:46Z</time>
      </trkpt>
      <trkpt lat="47.98657" lon="-4.18778">
        <ele>102.9</ele>
        <time>2022-06-04T07:19:53Z</time>
      </trkpt>
      <trkpt lat="47.98647" lon="-4.18778">
        <ele>103.2</ele>
        <time>2022-06-04T07:20:00Z</time>
      </trkpt>
      <trkpt lat="47.98637" lon="-4.18776">
        <ele>103.4</ele>
        <time>2022-06-04T07:20:07Z</time>
      </trkpt>
      <trkpt lat="47.98628" lon="-4.18774">
        <ele>103.7</ele>
        <time>2022-06-04T07:20:14Z</time>
      </trkpt>
      <trkpt lat="47.98619" lon="-4.18773">
        <ele>103.9</ele>
        <time>2022-06-04T07:20:21Z</time>
      </trkpt>
      <trkpt lat="47.9861" lon="-4.18774">
        <ele>104.2</ele>
        <time>2022-06-04T07:20:28Z</time>
      </trkpt>
      <trkpt lat="47.986" lon="-4.18774">
        <ele>104.6</ele>
        <time>2022-06-04T07:20:35Z</time>
      </trkpt>
      <trkpt lat="47.98591" lon="-4.18774">
        <ele>105.1</ele>
        <time>2022-06-04T07:20:42Z</time>
      </trkpt>
      <trkpt lat="47.98581" lon="-4.18771">
        <ele>105.7</ele>
        <time>2022-06-04T07:20:50Z</time>
      </trkpt>
      <trkpt lat="47.98572" lon="-4.18771">
        <ele>106.1</ele>
        <time>2022-06-04T07:20:59Z</time>
      </trkpt>
      <trkpt lat="47.98562" lon="-4.18772">
        <ele>106.4</ele>
        <time>2022-06-04T07:21:07Z</time>
      </trkpt>
      <trkpt lat="47.98553" lon="-4.18771">
        <ele>106.6</ele>
        <time>2022-06-04T07:21:14Z</time>
      </trkpt>
      <trkpt lat="47.98543" lon="-4.18769">
        <ele>106.4</ele>
        <time>2022-06-04T07:21:21Z</time>
      </trkpt>
      <trkpt lat="47.98534" lon="-4.18767">
        <ele>106.5</ele>
        <time>2022-06-04T07:21:27Z</time>
      </trkpt>
      <trkpt lat="47.98524" lon="-4.18765">
        <ele>106.5</ele>
        <time>2022-06-04T07:21:34Z</time>
      </trkpt>
      <trkpt lat="47.98514" lon="-4.18763">
        <ele>106.5</ele>
        <time>2022-06-04T07:21:41Z</time>
      </trkpt>
      <trkpt lat="47.98505" lon="-4.18762">
        <ele>106.2</ele>
        <time>2022-06-04T07:21:49Z</time>
      </trkpt>
      <trkpt lat="47.98496" lon="-4.18761">
        <ele>106</ele>
        <time>2022-06-04T07:21:56Z</time>
      </trkpt>
      <trkpt lat="47.98486" lon="-4.1876">
        <ele>105.6</ele>
        <time>2022-06-04T07:22:03Z</time>
      </trkpt>
      <trkpt lat="47.98477" lon="-4.18759">
        <ele>105.6</ele>
        <time>2022-06-04T07:22:11Z</time>
      </trkpt>
      <trkpt lat="47.98468" lon="-4.18752">
        <ele>105.4</ele>
        <time>2022-06-04T07:22:20Z</time>
      </trkpt>
      <trkpt lat="47.98461" lon="-4.18743">
        <ele>105.1</ele>
        <time>2022-06-04T07:22:29Z</time>
      </trkpt>
      <trkpt lat="47.98462" lon="-4.18757">
        <ele>104.5</ele>
        <time>2022-06-04T07:22:51Z</time>
      </trkpt>
      <trkpt lat="47.9847" lon="-4.18766">
        <ele>104.4</ele>
        <time>2022-06-04T07:22:58Z</time>
      </trkpt>
      <trkpt lat="47.98478" lon="-4.18772">
        <ele>104.5</ele>
        <time>2022-06-04T07:23:05Z</time>
      </trkpt>
      <trkpt lat="47.98487" lon="-4.18774">
        <ele>105.2</ele>
        <time>2022-06-04T07:23:15Z</time>
      </trkpt>
      <trkpt lat="47.98497" lon="-4.18775">
        <ele>105.4</ele>
        <time>2022-06-04T07:23:22Z</time>
      </trkpt>
      <trkpt lat="47.98507" lon="-4.18777">
        <ele>106.1</ele>
        <time>2022-06-04T07:23:29Z</time>
      </trkpt>
      <trkpt lat="47.98516" lon="-4.18778">
        <ele>106.8</ele>
        <time>2022-06-04T07:23:36Z</time>
      </trkpt>
      <trkpt lat="47.9852" lon="-4.18791">
        <ele>107.2</ele>
        <time>2022-06-04T07:23:46Z</time>
      </trkpt>
      <trkpt lat="47.98522" lon="-4.18804">
        <ele>107.1</ele>
        <time>2022-06-04T07:23:54Z</time>
      </trkpt>
      <trkpt lat="47.98522" lon="-4.18819">
        <ele>107.1</ele>
        <time>2022-06-04T07:24:04Z</time>
      </trkpt>
      <trkpt lat="47.9853" lon="-4.18826">
        <ele>107</ele>
        <time>2022-06-04T07:24:14Z</time>
      </trkpt>
      <trkpt lat="47.98539" lon="-4.1883">
        <ele>106.5</ele>
        <time>2022-06-04T07:24:23Z</time>
      </trkpt>
      <trkpt lat="47.98548" lon="-4.18835">
        <ele>106.4</ele>
        <time>2022-06-04T07:24:31Z</time>
      </trkpt>
      <trkpt lat="47.98557" lon="-4.18839">
        <ele>106.1</ele>
        <time>2022-06-04T07:24:39Z</time>
      </trkpt>
      <trkpt lat="47.98566" lon="-4.18842">
        <ele>105.6</ele>
        <time>2022-06-04T07:24:47Z</time>
      </trkpt>
      <trkpt lat="47.98575" lon="-4.18845">
        <ele>105.6</ele>
        <time>2022-06-04T07:24:53Z</time>
      </trkpt>
      <trkpt lat="47.98585" lon="-4.18844">
        <ele>105.4</ele>
        <time>2022-06-04T07:25:00Z</time>
      </trkpt>
      <trkpt lat="47.98594" lon="-4.18844">
        <ele>105.2</ele>
        <time>2022-06-04T07:25:08Z</time>
      </trkpt>
      <trkpt lat="47.98584" lon="-4.18848">
        <ele>105.1</ele>
        <time>2022-06-04T07:25:23Z</time>
      </trkpt>
      <trkpt lat="47.98575" lon="-4.18846">
        <ele>105</ele>
        <time>2022-06-04T07:25:32Z</time>
      </trkpt>
      <trkpt lat="47.98565" lon="-4.18846">
        <ele>104.9</ele>
        <time>2022-06-04T07:25:40Z</time>
      </trkpt>
      <trkpt lat="47.98556" lon="-4.18845">
        <ele>104.7</ele>
        <time>2022-06-04T07:25:47Z</time>
      </trkpt>
      <trkpt lat="47.98547" lon="-4.18842">
        <ele>104.6</ele>
        <time>2022-06-04T07:25:56Z</time>
      </trkpt>
      <trkpt lat="47.98536" lon="-4.18839">
        <ele>104.7</ele>
        <time>2022-06-04T07:26:03Z</time>
      </trkpt>
      <trkpt lat="47.98526" lon="-4.18838">
        <ele>104.7</ele>
        <time>2022-06-04T07:26:12Z</time>
      </trkpt>
      <trkpt lat="47.98516" lon="-4.18837">
        <ele>104.4</ele>
        <time>2022-06-04T07:26:21Z</time>
      </trkpt>
      <trkpt lat="47.98507" lon="-4.18836">
        <ele>103.5</ele>
        <time>2022-06-04T07:26:31Z</time>
      </trkpt>
      <trkpt lat="47.98498" lon="-4.18834">
        <ele>103</ele>
        <time>2022-06-04T07:26:39Z</time>
      </trkpt>
      <trkpt lat="47.98489" lon="-4.18831">
        <ele>102.7</ele>
        <time>2022-06-04T07:26:46Z</time>
      </trkpt>
      <trkpt lat="47.9848" lon="-4.18827">
        <ele>102.2</ele>
        <time>2022-06-04T07:26:53Z</time>
      </trkpt>
      <trkpt lat="47.98471" lon="-4.18825">
        <ele>102.1</ele>
        <time>2022-06-04T07:27:00Z</time>
      </trkpt>
      <trkpt lat="47.98461" lon="-4.18821">
        <ele>101.8</ele>
        <time>2022-06-04T07:27:07Z</time>
      </trkpt>
      <trkpt lat="47.98452" lon="-4.1882">
        <ele>101.9</ele>
        <time>2022-06-04T07:27:16Z</time>
      </trkpt>
      <trkpt lat="47.98442" lon="-4.18818">
        <ele>101.6</ele>
        <time>2022-06-04T07:27:25Z</time>
      </trkpt>
      <trkpt lat="47.98432" lon="-4.18818">
        <ele>101.5</ele>
        <time>2022-06-04T07:27:33Z</time>
      </trkpt>
      <trkpt lat="47.98421" lon="-4.18815">
        <ele>101.4</ele>
        <time>2022-06-04T07:27:40Z</time>
      </trkpt>
      <trkpt lat="47.98411" lon="-4.18813">
        <ele>101.1</ele>
        <time>2022-06-04T07:27:46Z</time>
      </trkpt>
      <trkpt lat="47.98402" lon="-4.18813">
        <ele>100.8</ele>
        <time>2022-06-04T07:27:53Z</time>
      </trkpt>
      <trkpt lat="47.98392" lon="-4.18811">
        <ele>100.5</ele>
        <time>2022-06-04T07:28:01Z</time>
      </trkpt>
      <trkpt lat="47.98383" lon="-4.18809">
        <ele>99.7</ele>
        <time>2022-06-04T07:28:10Z</time>
      </trkpt>
      <trkpt lat="47.98374" lon="-4.18809">
        <ele>99.2</ele>
        <time>2022-06-04T07:28:16Z</time>
      </trkpt>
      <trkpt lat="47.98364" lon="-4.1881">
        <ele>98.7</ele>
        <time>2022-06-04T07:28:25Z</time>
      </trkpt>
      <trkpt lat="47.98355" lon="-4.18814">
        <ele>98.1</ele>
        <time>2022-06-04T07:28:34Z</time>
      </trkpt>
      <trkpt lat="47.98346" lon="-4.18816">
        <ele>97.5</ele>
        <time>2022-06-04T07:28:41Z</time>
      </trkpt>
      <trkpt lat="47.98337" lon="-4.18819">
        <ele>96.8</ele>
        <time>2022-06-04T07:28:48Z</time>
      </trkpt>
      <trkpt lat="47.98326" lon="-4.1882">
        <ele>96.4</ele>
        <time>2022-06-04T07:28:55Z</time>
      </trkpt>
      <trkpt lat="47.98316" lon="-4.18821">
        <ele>95.8</ele>
        <time>2022-06-04T07:29:04Z</time>
      </trkpt>
      <trkpt lat="47.98307" lon="-4.18819">
        <ele>95.7</ele>
        <time>2022-06-04T07:29:12Z</time>
      </trkpt>
      <trkpt lat="47.98297" lon="-4.18816">
        <ele>95.4</ele>
        <time>2022-06-04T07:29:20Z</time>
      </trkpt>
      <trkpt lat="47.98288" lon="-4.18812">
        <ele>95</ele>
        <time>2022-06-04T07:29:26Z</time>
      </trkpt>
      <trkpt lat="47.98279" lon="-4.18809">
        <ele>94.9</ele>
        <time>2022-06-04T07:29:34Z</time>
      </trkpt>
      <trkpt lat="47.98269" lon="-4.18805">
        <ele>94.6</ele>
        <time>2022-06-04T07:29:41Z</time>
      </trkpt>
      <trkpt lat="47.98259" lon="-4.18805">
        <ele>94.3</ele>
        <time>2022-06-04T07:29:49Z</time>
      </trkpt>
      <trkpt lat="47.98249" lon="-4.18804">
        <ele>93.8</ele>
        <time>2022-06-04T07:29:59Z</time>
      </trkpt>
      <trkpt lat="47.98238" lon="-4.18803">
        <ele>93.6</ele>
        <time>2022-06-04T07:30:06Z</time>
      </trkpt>
      <trkpt lat="47.98229" lon="-4.188">
        <ele>93.4</ele>
        <time>2022-06-04T07:30:11Z</time>
      </trkpt>
      <trkpt lat="47.98219" lon="-4.188">
        <ele>93.1</ele>
        <time>2022-06-04T07:30:20Z</time>
      </trkpt>
      <trkpt lat="47.9821" lon="-4.18801">
        <ele>92.6</ele>
        <time>2022-06-04T07:30:30Z</time>
      </trkpt>
      <trkpt lat="47.98201" lon="-4.18801">
        <ele>92.1</ele>
        <time>2022-06-04T07:30:38Z</time>
      </trkpt>
      <trkpt lat="47.98191" lon="-4.18804">
        <ele>91.8</ele>
        <time>2022-06-04T07:30:46Z</time>
      </trkpt>
      <trkpt lat="47.98181" lon="-4.18809">
        <ele>91.3</ele>
        <time>2022-06-04T07:30:55Z</time>
      </trkpt>
      <trkpt lat="47.98171" lon="-4.18809">
        <ele>90.6</ele>
        <time>2022-06-04T07:31:02Z</time>
      </trkpt>
      <trkpt lat="47.98161" lon="-4.18808">
        <ele>90.4</ele>
        <time>2022-06-04T07:31:11Z</time>
      </trkpt>
      <trkpt lat="47.98151" lon="-4.1881">
        <ele>90.2</ele>
        <time>2022-06-04T07:31:18Z</time>
      </trkpt>
      <trkpt lat="47.9814" lon="-4.18811">
        <ele>89.9</ele>
        <time>2022-06-04T07:31:26Z</time>
      </trkpt>
      <trkpt lat="47.98131" lon="-4.18815">
        <ele>89.7</ele>
        <time>2022-06-04T07:31:33Z</time>
      </trkpt>
      <trkpt lat="47.98122" lon="-4.18815">
        <ele>89.5</ele>
        <time>2022-06-04T07:31:39Z</time>
      </trkpt>
      <trkpt lat="47.98112" lon="-4.18816">
        <ele>89.3</ele>
        <time>2022-06-04T07:31:47Z</time>
      </trkpt>
      <trkpt lat="47.98103" lon="-4.18814">
        <ele>89</ele>
        <time>2022-06-04T07:31:55Z</time>
      </trkpt>
      <trkpt lat="47.98093" lon="-4.18814">
        <ele>88.8</ele>
        <time>2022-06-04T07:32:03Z</time>
      </trkpt>
      <trkpt lat="47.98083" lon="-4.18814">
        <ele>88.6</ele>
        <time>2022-06-04T07:32:10Z</time>
      </trkpt>
      <trkpt lat="47.98073" lon="-4.18818">
        <ele>88.5</ele>
        <time>2022-06-04T07:32:15Z</time>
      </trkpt>
      <trkpt lat="47.98065" lon="-4.18826">
        <ele>88.3</ele>
        <time>2022-06-04T07:32:25Z</time>
      </trkpt>
      <trkpt lat="47.98055" lon="-4.18828">
        <ele>88.3</ele>
        <time>2022-06-04T07:32:39Z</time>
      </trkpt>
      <trkpt lat="47.98046" lon="-4.18835">
        <ele>88.5</ele>
        <time>2022-06-04T07:32:50Z</time>
      </trkpt>
      <trkpt lat="47.98037" lon="-4.1884">
        <ele>88.3</ele>
        <time>2022-06-04T07:32:56Z</time>
      </trkpt>
      <trkpt lat="47.9803" lon="-4.1885">
        <ele>88.7</ele>
        <time>2022-06-04T07:33:14Z</time>
      </trkpt>
      <trkpt lat="47.98021" lon="-4.18856">
        <ele>88.7</ele>
        <time>2022-06-04T07:33:29Z</time>
      </trkpt>
      <trkpt lat="47.98012" lon="-4.18862">
        <ele>89</ele>
        <time>2022-06-04T07:33:41Z</time>
      </trkpt>
      <trkpt lat="47.98005" lon="-4.18871">
        <ele>89.4</ele>
        <time>2022-06-04T07:33:48Z</time>
      </trkpt>
      <trkpt lat="47.97999" lon="-4.18884">
        <ele>89.8</ele>
        <time>2022-06-04T07:33:56Z</time>
      </trkpt>
      <trkpt lat="47.97992" lon="-4.18895">
        <ele>90.4</ele>
        <time>2022-06-04T07:34:04Z</time>
      </trkpt>
      <trkpt lat="47.97983" lon="-4.18899">
        <ele>90.7</ele>
        <time>2022-06-04T07:34:14Z</time>
      </trkpt>
      <trkpt lat="47.97974" lon="-4.18899">
        <ele>91.1</ele>
        <time>2022-06-04T07:34:21Z</time>
      </trkpt>
      <trkpt lat="47.97965" lon="-4.18901">
        <ele>91.5</ele>
        <time>2022-06-04T07:34:30Z</time>
      </trkpt>
      <trkpt lat="47.97954" lon="-4.18903">
        <ele>91.7</ele>
        <time>2022-06-04T07:34:38Z</time>
      </trkpt>
      <trkpt lat="47.97944" lon="-4.18906">
        <ele>91.8</ele>
        <time>2022-06-04T07:34:46Z</time>
      </trkpt>
      <trkpt lat="47.97934" lon="-4.18907">
        <ele>92</ele>
        <time>2022-06-04T07:34:55Z</time>
      </trkpt>
      <trkpt lat="47.97925" lon="-4.18909">
        <ele>92.1</ele>
        <time>2022-06-04T07:35:04Z</time>
      </trkpt>
      <trkpt lat="47.97915" lon="-4.1891">
        <ele>92.1</ele>
        <time>2022-06-04T07:35:11Z</time>
      </trkpt>
      <trkpt lat="47.97906" lon="-4.18912">
        <ele>92.1</ele>
        <time>2022-06-04T07:35:19Z</time>
      </trkpt>
      <trkpt lat="47.97901" lon="-4.189">
        <ele>92.3</ele>
        <time>2022-06-04T07:35:31Z</time>
      </trkpt>
      <trkpt lat="47.97899" lon="-4.18886">
        <ele>92.3</ele>
        <time>2022-06-04T07:35:41Z</time>
      </trkpt>
      <trkpt lat="47.97891" lon="-4.18878">
        <ele>92.5</ele>
        <time>2022-06-04T07:35:49Z</time>
      </trkpt>
      <trkpt lat="47.97893" lon="-4.18863">
        <ele>92.6</ele>
        <time>2022-06-04T07:35:57Z</time>
      </trkpt>
      <trkpt lat="47.97889" lon="-4.18851">
        <ele>92.7</ele>
        <time>2022-06-04T07:36:05Z</time>
      </trkpt>
      <trkpt lat="47.97882" lon="-4.1884">
        <ele>92.8</ele>
        <time>2022-06-04T07:36:13Z</time>
      </trkpt>
      <trkpt lat="47.97874" lon="-4.18835">
        <ele>92.6</ele>
        <time>2022-06-04T07:36:19Z</time>
      </trkpt>
      <trkpt lat="47.97864" lon="-4.18836">
        <ele>92.3</ele>
        <time>2022-06-04T07:36:26Z</time>
      </trkpt>
      <trkpt lat="47.97859" lon="-4.18824">
        <ele>91.6</ele>
        <time>2022-06-04T07:36:37Z</time>
      </trkpt>
      <trkpt lat="47.97865" lon="-4.18812">
        <ele>91.5</ele>
        <time>2022-06-04T07:36:46Z</time>
      </trkpt>
      <trkpt lat="47.97873" lon="-4.18803">
        <ele>91.7</ele>
        <time>2022-06-04T07:36:54Z</time>
      </trkpt>
      <trkpt lat="47.97878" lon="-4.18791">
        <ele>91.5</ele>
        <time>2022-06-04T07:37:01Z</time>
      </trkpt>
      <trkpt lat="47.97884" lon="-4.18781">
        <ele>91.2</ele>
        <time>2022-06-04T07:37:09Z</time>
      </trkpt>
      <trkpt lat="47.9789" lon="-4.18769">
        <ele>91.1</ele>
        <time>2022-06-04T07:37:18Z</time>
      </trkpt>
      <trkpt lat="47.97891" lon="-4.18754">
        <ele>90.4</ele>
        <time>2022-06-04T07:37:26Z</time>
      </trkpt>
      <trkpt lat="47.97891" lon="-4.1874">
        <ele>89.6</ele>
        <time>2022-06-04T07:37:33Z</time>
      </trkpt>
      <trkpt lat="47.97894" lon="-4.18726">
        <ele>88.7</ele>
        <time>2022-06-04T07:37:42Z</time>
      </trkpt>
      <trkpt lat="47.97896" lon="-4.18712">
        <ele>88</ele>
        <time>2022-06-04T07:37:50Z</time>
      </trkpt>
      <trkpt lat="47.97896" lon="-4.18698">
        <ele>87.7</ele>
        <time>2022-06-04T07:37:57Z</time>
      </trkpt>
      <trkpt lat="47.97896" lon="-4.18684">
        <ele>87.2</ele>
        <time>2022-06-04T07:38:05Z</time>
      </trkpt>
      <trkpt lat="47.97898" lon="-4.18669">
        <ele>87.3</ele>
        <time>2022-06-04T07:38:13Z</time>
      </trkpt>
      <trkpt lat="47.97897" lon="-4.18655">
        <ele>87.2</ele>
        <time>2022-06-04T07:38:20Z</time>
      </trkpt>
      <trkpt lat="47.979" lon="-4.18641">
        <ele>87.2</ele>
        <time>2022-06-04T07:38:28Z</time>
      </trkpt>
      <trkpt lat="47.97907" lon="-4.18632">
        <ele>87.4</ele>
        <time>2022-06-04T07:38:35Z</time>
      </trkpt>
      <trkpt lat="47.97916" lon="-4.1863">
        <ele>87.5</ele>
        <time>2022-06-04T07:38:45Z</time>
      </trkpt>
      <trkpt lat="47.97922" lon="-4.18619">
        <ele>87.8</ele>
        <time>2022-06-04T07:38:53Z</time>
      </trkpt>
      <trkpt lat="47.97917" lon="-4.18607">
        <ele>88</ele>
        <time>2022-06-04T07:39:02Z</time>
      </trkpt>
      <trkpt lat="47.97917" lon="-4.18593">
        <ele>88.4</ele>
        <time>2022-06-04T07:39:10Z</time>
      </trkpt>
      <trkpt lat="47.97916" lon="-4.18579">
        <ele>88.3</ele>
        <time>2022-06-04T07:39:19Z</time>
      </trkpt>
      <trkpt lat="47.97914" lon="-4.18565">
        <ele>88.3</ele>
        <time>2022-06-04T07:39:27Z</time>
      </trkpt>
      <trkpt lat="47.97914" lon="-4.1855">
        <ele>88.4</ele>
        <time>2022-06-04T07:39:34Z</time>
      </trkpt>
      <trkpt lat="47.97913" lon="-4.18536">
        <ele>88.5</ele>
        <time>2022-06-04T07:39:41Z</time>
      </trkpt>
      <trkpt lat="47.97916" lon="-4.18522">
        <ele>89</ele>
        <time>2022-06-04T07:39:48Z</time>
      </trkpt>
      <trkpt lat="47.97917" lon="-4.18508">
        <ele>89.4</ele>
        <time>2022-06-04T07:39:55Z</time>
      </trkpt>
      <trkpt lat="47.97918" lon="-4.18492">
        <ele>89.6</ele>
        <time>2022-06-04T07:40:03Z</time>
      </trkpt>
      <trkpt lat="47.9792" lon="-4.18479">
        <ele>89.7</ele>
        <time>2022-06-04T07:40:10Z</time>
      </trkpt>
      <trkpt lat="47.97919" lon="-4.18463">
        <ele>90.1</ele>
        <time>2022-06-04T07:40:18Z</time>
      </trkpt>
      <trkpt lat="47.97923" lon="-4.18449">
        <ele>90.6</ele>
        <time>2022-06-04T07:40:26Z</time>
      </trkpt>
      <trkpt lat="47.97923" lon="-4.18435">
        <ele>90.9</ele>
        <time>2022-06-04T07:40:34Z</time>
      </trkpt>
      <trkpt lat="47.97923" lon="-4.18419">
        <ele>91.2</ele>
        <time>2022-06-04T07:40:42Z</time>
      </trkpt>
      <trkpt lat="47.97925" lon="-4.18404">
        <ele>91.7</ele>
        <time>2022-06-04T07:40:50Z</time>
      </trkpt>
      <trkpt lat="47.97928" lon="-4.18391">
        <ele>92.1</ele>
        <time>2022-06-04T07:40:57Z</time>
      </trkpt>
      <trkpt lat="47.9793" lon="-4.18376">
        <ele>92.6</ele>
        <time>2022-06-04T07:41:05Z</time>
      </trkpt>
      <trkpt lat="47.97932" lon="-4.18363">
        <ele>92.8</ele>
        <time>2022-06-04T07:41:12Z</time>
      </trkpt>
      <trkpt lat="47.97936" lon="-4.18349">
        <ele>93.2</ele>
        <time>2022-06-04T07:41:20Z</time>
      </trkpt>
      <trkpt lat="47.97939" lon="-4.18335">
        <ele>93.5</ele>
        <time>2022-06-04T07:41:28Z</time>
      </trkpt>
      <trkpt lat="47.97945" lon="-4.18323">
        <ele>93.6</ele>
        <time>2022-06-04T07:41:36Z</time>
      </trkpt>
      <trkpt lat="47.97949" lon="-4.18311">
        <ele>94</ele>
        <time>2022-06-04T07:41:44Z</time>
      </trkpt>
      <trkpt lat="47.97953" lon="-4.18298">
        <ele>94.3</ele>
        <time>2022-06-04T07:41:52Z</time>
      </trkpt>
      <trkpt lat="47.9796" lon="-4.18287">
        <ele>94.5</ele>
        <time>2022-06-04T07:42:00Z</time>
      </trkpt>
      <trkpt lat="47.97962" lon="-4.18274">
        <ele>94.9</ele>
        <time>2022-06-04T07:42:09Z</time>
      </trkpt>
      <trkpt lat="47.97958" lon="-4.18261">
        <ele>95.1</ele>
        <time>2022-06-04T07:42:18Z</time>
      </trkpt>
      <trkpt lat="47.97956" lon="-4.18246">
        <ele>95.5</ele>
        <time>2022-06-04T07:42:29Z</time>
      </trkpt>
      <trkpt lat="47.97957" lon="-4.18233">
        <ele>96.1</ele>
        <time>2022-06-04T07:42:36Z</time>
      </trkpt>
      <trkpt lat="47.9796" lon="-4.18219">
        <ele>96.4</ele>
        <time>2022-06-04T07:42:44Z</time>
      </trkpt>
      <trkpt lat="47.97966" lon="-4.18205">
        <ele>96.6</ele>
        <time>2022-06-04T07:42:51Z</time>
      </trkpt>
      <trkpt lat="47.97967" lon="-4.1819">
        <ele>96.7</ele>
        <time>2022-06-04T07:42:57Z</time>
      </trkpt>
      <trkpt lat="47.97967" lon="-4.18176">
        <ele>96.6</ele>
        <time>2022-06-04T07:43:04Z</time>
      </trkpt>
      <trkpt lat="47.97965" lon="-4.18163">
        <ele>96.6</ele>
        <time>2022-06-04T07:43:11Z</time>
      </trkpt>
      <trkpt lat="47.97958" lon="-4.18152">
        <ele>96.8</ele>
        <time>2022-06-04T07:43:21Z</time>
      </trkpt>
      <trkpt lat="47.97949" lon="-4.18148">
        <ele>96.8</ele>
        <time>2022-06-04T07:43:30Z</time>
      </trkpt>
      <trkpt lat="47.97946" lon="-4.18135">
        <ele>96.8</ele>
        <time>2022-06-04T07:43:41Z</time>
      </trkpt>
      <trkpt lat="47.97946" lon="-4.18124">
        <ele>96.8</ele>
        <time>2022-06-04T07:44:01Z</time>
      </trkpt>
    </trkseg>
  </trk>
</gpx>